Observation data for Happy on 02/11/2018      Previous  Date  Next       Current Mesonet Observations  Soil Data  Daily Summary Page  Observations in Plain Language
KHA2 110600Z 00010KT M10/M14 A3002 RMK A01 T10991135  RH  075%=      5-min Rain = 0
KHA2 110601Z 01012KT M10/M14 A3001 RMK A01 T10991135  RH  075%=      5-min Rain = 0
KHA2 110602Z 01013KT M10/M14 A3001 RMK A01 T10991135  RH  075%=      5-min Rain = 0
KHA2 110603Z 01012KT M10/M14 A3002 RMK A01 T10991135  RH  075%=      5-min Rain = 0
KHA2 110604Z 01011KT M10/M14 A3002 RMK A01 T10981135  RH  075%=      5-min Rain = 0
KHA2 110605Z 01012KT M10/M14 A3002 RMK A01 T10981135  RH  075%=      5-min Rain = 0
KHA2 110606Z 01012KT M10/M14 A3002 RMK A01 T10991135  RH  075%=      5-min Rain = 0
KHA2 110607Z 01012KT M10/M14 A3002 RMK A01 T10981135  RH  075%=      5-min Rain = 0
KHA2 110608Z 01012KT M10/M14 A3002 RMK A01 T10981135  RH  075%=      5-min Rain = 0
KHA2 110609Z 01013KT M10/M14 A3002 RMK A01 T10981135  RH  075%=      5-min Rain = 0
KHA2 110610Z 01011KT M10/M14 A3002 RMK A01 T10981135  RH  075%=      5-min Rain = 0
KHA2 110611Z 01013KT M10/M14 A3002 RMK A01 T10981135  RH  074%=      5-min Rain = 0
KHA2 110612Z 01012KT M10/M14 A3002 RMK A01 T10981135  RH  074%=      5-min Rain = 0
KHA2 110613Z 01013KT M10/M14 A3002 RMK A01 T10981135  RH  074%=      5-min Rain = 0
KHA2 110614Z 01013KT M10/M13 A3002 RMK A01 T10971134  RH  074%=      5-min Rain = 0
KHA2 110615Z 01013KT M10/M13 A3002 RMK A01 T10971134  RH  074%=      5-min Rain = 0
KHA2 110616Z 01010KT M10/M13 A3002 RMK A01 T10971134  RH  074%=      5-min Rain = 0
KHA2 110617Z 01009KT M10/M13 A3002 RMK A01 T10971134  RH  074%=      5-min Rain = 0
KHA2 110618Z 01011KT M10/M13 A3002 RMK A01 T10971134  RH  074%=      5-min Rain = 0
KHA2 110619Z 01012KT M10/M14 A3002 RMK A01 T10971135  RH  074%=      5-min Rain = 0
KHA2 110620Z 01012KT M10/M13 A3002 RMK A01 T10971134  RH  074%=      5-min Rain = 0
KHA2 110621Z 00014KT M10/M13 A3002 RMK A01 T10961134  RH  074%=      5-min Rain = 0
KHA2 110622Z 01014KT M10/M13 A3002 RMK A01 T10961134  RH  074%=      5-min Rain = 0
KHA2 110623Z 01013KT M10/M13 A3002 RMK A01 T10961134  RH  074%=      5-min Rain = 0
KHA2 110624Z 01015KT M10/M13 A3002 RMK A01 T10951133  RH  074%=      5-min Rain = 0
KHA2 110625Z 01014KT M10/M13 A3002 RMK A01 T10951134  RH  073%=      5-min Rain = 0
KHA2 110626Z 01014KT M09/M13 A3002 RMK A01 T10941134  RH  073%=      5-min Rain = 0
KHA2 110627Z 01015KT M09/M13 A3002 RMK A01 T10941134  RH  073%=      5-min Rain = 0
KHA2 110628Z 01015KT M09/M13 A3002 RMK A01 T10941134  RH  073%=      5-min Rain = 0
KHA2 110629Z 01013KT M10/M14 A3002 RMK A01 T10951135  RH  072%=      5-min Rain = 0
KHA2 110630Z 01015KT M09/M14 A3002 RMK A01 T10941135  RH  072%=      5-min Rain = 0
KHA2 110631Z 01016KT M09/M14 A3002 RMK A01 T10941135  RH  072%=      5-min Rain = 0
KHA2 110632Z 01016KT M10/M14 A3002 RMK A01 T10951135  RH  072%=      5-min Rain = 0
KHA2 110633Z 01015KT M09/M14 A3002 RMK A01 T10941135  RH  072%=      5-min Rain = 0
KHA2 110634Z 01017KT M09/M14 A3002 RMK A01 T10941135  RH  072%=      5-min Rain = 0
KHA2 110635Z 01018KT M09/M14 A3002 RMK A01 T10941136  RH  072%=      5-min Rain = 0
KHA2 110636Z 01015KT M10/M14 A3002 RMK A01 T10951136  RH  072%=      5-min Rain = 0
KHA2 110637Z 01014KT M09/M14 A3002 RMK A01 T10941135  RH  072%=      5-min Rain = 0
KHA2 110638Z 01017KT M09/M14 A3003 RMK A01 T10941136  RH  072%=      5-min Rain = 0
KHA2 110639Z 01016KT M10/M14 A3003 RMK A01 T10951136  RH  072%=      5-min Rain = 0
KHA2 110640Z 01016KT M09/M14 A3003 RMK A01 T10941135  RH  072%=      5-min Rain = 0
KHA2 110641Z 01015KT M09/M14 A3003 RMK A01 T10941135  RH  072%=      5-min Rain = 0
KHA2 110642Z 00015KT M10/M14 A3003 RMK A01 T10951136  RH  072%=      5-min Rain = 0
KHA2 110643Z 01014KT M10/M14 A3003 RMK A01 T10951136  RH  072%=      5-min Rain = 0
KHA2 110644Z 01013KT M10/M14 A3003 RMK A01 T10951136  RH  072%=      5-min Rain = 0
KHA2 110645Z 01014KT M10/M14 A3003 RMK A01 T10951136  RH  072%=      5-min Rain = 0
KHA2 110646Z 01013KT M10/M14 A3002 RMK A01 T10951136  RH  072%=      5-min Rain = 0
KHA2 110647Z 01014KT M10/M14 A3003 RMK A01 T10951136  RH  072%=      5-min Rain = 0
KHA2 110648Z 00015KT M10/M14 A3003 RMK A01 T10961136  RH  072%=      5-min Rain = 0
KHA2 110649Z 00012KT M10/M14 A3003 RMK A01 T10961137  RH  072%=      5-min Rain = 0
KHA2 110650Z 01015KT M10/M14 A3003 RMK A01 T10961137  RH  072%=      5-min Rain = 0
KHA2 110651Z 01016KT M10/M14 A3003 RMK A01 T10961137  RH  072%=      5-min Rain = 0
KHA2 110652Z 01015KT M10/M14 A3003 RMK A01 T10961137  RH  072%=      5-min Rain = 0
KHA2 110653Z 01015KT M10/M14 A3003 RMK A01 T10961136  RH  072%=      5-min Rain = 0
KHA2 110654Z 01016KT M10/M14 A3003 RMK A01 T10961136  RH  072%=      5-min Rain = 0
KHA2 110655Z 02013KT M10/M14 A3003 RMK A01 T10961136  RH  072%=      5-min Rain = 0
KHA2 110656Z 01012KT M10/M14 A3003 RMK A01 T10961136  RH  073%=      5-min Rain = 0
KHA2 110657Z 01011KT M10/M14 A3003 RMK A01 T10961136  RH  073%=      5-min Rain = 0
KHA2 110658Z 01012KT M10/M14 A3003 RMK A01 T10961136  RH  073%=      5-min Rain = 0
KHA2 110659Z 01015KT M10/M14 A3003 RMK A01 T10961136  RH  073%=      5-min Rain = 0
KHA2 110700Z 01013KT M10/M14 A3003 RMK A01 T10961136  RH  073%=      5-min Rain = 0
KHA2 110701Z 01013G18KT M10/M14 A3003 RMK A01 T10971137  RH  073%=      5-min Rain = 0
KHA2 110702Z 02016KT M10/M14 A3003 RMK A01 T10971137  RH  073%=      5-min Rain = 0
KHA2 110703Z 01015KT M10/M14 A3003 RMK A01 T10961136  RH  073%=      5-min Rain = 0
KHA2 110704Z 01014KT M10/M14 A3004 RMK A01 T10961135  RH  073%=      5-min Rain = 0
KHA2 110705Z 01013KT M10/M14 A3004 RMK A01 T10961136  RH  073%=      5-min Rain = 0
KHA2 110706Z 01013KT M10/M14 A3003 RMK A01 T10961135  RH  073%=      5-min Rain = 0
KHA2 110707Z 01013KT M10/M14 A3003 RMK A01 T10961135  RH  073%=      5-min Rain = 0
KHA2 110708Z 01012KT M10/M14 A3003 RMK A01 T10961136  RH  073%=      5-min Rain = 0
KHA2 110709Z 01012KT M10/M14 A3003 RMK A01 T10971137  RH  072%=      5-min Rain = 0
KHA2 110710Z 01012KT M10/M14 A3003 RMK A01 T10971137  RH  073%=      5-min Rain = 0
KHA2 110711Z 01012KT M10/M14 A3003 RMK A01 T10971137  RH  073%=      5-min Rain = 0
KHA2 110712Z 01013KT M10/M14 A3003 RMK A01 T10971137  RH  073%=      5-min Rain = 0
KHA2 110713Z 01011KT M10/M14 A3004 RMK A01 T10971137  RH  073%=      5-min Rain = 0
KHA2 110714Z 01011KT M10/M14 A3003 RMK A01 T10971137  RH  073%=      5-min Rain = 0
KHA2 110715Z 01013KT M10/M14 A3003 RMK A01 T10981138  RH  073%=      5-min Rain = 0
KHA2 110716Z 01014KT M10/M14 A3003 RMK A01 T10981137  RH  073%=      5-min Rain = 0
KHA2 110717Z 01013KT M10/M14 A3003 RMK A01 T10981137  RH  073%=      5-min Rain = 0
KHA2 110718Z 01013KT M10/M14 A3003 RMK A01 T10981137  RH  073%=      5-min Rain = 0
KHA2 110719Z 01013KT M10/M14 A3003 RMK A01 T10981137  RH  073%=      5-min Rain = 0
KHA2 110720Z 01012KT M10/M14 A3003 RMK A01 T10981137  RH  073%=      5-min Rain = 0
KHA2 110721Z 00013KT M10/M14 A3003 RMK A01 T10991138  RH  073%=      5-min Rain = 0
KHA2 110722Z 01012KT M10/M14 A3003 RMK A01 T10991138  RH  073%=      5-min Rain = 0
KHA2 110723Z 01012KT M10/M14 A3003 RMK A01 T10991138  RH  073%=      5-min Rain = 0
KHA2 110724Z 01011KT M10/M14 A3003 RMK A01 T10991138  RH  073%=      5-min Rain = 0
KHA2 110725Z 00011KT M10/M14 A3003 RMK A01 T11001139  RH  073%=      5-min Rain = 0
KHA2 110726Z 00011KT M10/M14 A3003 RMK A01 T11001139  RH  073%=      5-min Rain = 0
KHA2 110727Z 00012KT M10/M14 A3003 RMK A01 T11001139  RH  073%=      5-min Rain = 0
KHA2 110728Z 01011KT M10/M14 A3003 RMK A01 T11001139  RH  073%=      5-min Rain = 0
KHA2 110729Z 00011KT M10/M14 A3003 RMK A01 T11001138  RH  073%=      5-min Rain = 0
KHA2 110730Z 01012KT M10/M14 A3003 RMK A01 T11001139  RH  074%=      5-min Rain = 0
KHA2 110731Z 36011KT M10/M14 A3003 RMK A01 T11011139  RH  074%=      5-min Rain = 0
KHA2 110732Z 36011KT M10/M14 A3003 RMK A01 T11001139  RH  074%=      5-min Rain = 0
KHA2 110733Z 00011KT M10/M14 A3003 RMK A01 T11001139  RH  073%=      5-min Rain = 0
KHA2 110734Z 36010KT M10/M14 A3003 RMK A01 T11001139  RH  073%=      5-min Rain = 0
KHA2 110735Z 00011KT M10/M14 A3003 RMK A01 T11001139  RH  073%=      5-min Rain = 0
KHA2 110736Z 36010KT M10/M14 A3003 RMK A01 T11001139  RH  073%=      5-min Rain = 0
KHA2 110737Z 00012KT M10/M14 A3003 RMK A01 T11001139  RH  073%=      5-min Rain = 0
KHA2 110738Z 36013KT M10/M14 A3003 RMK A01 T11001139  RH  074%=      5-min Rain = 0
KHA2 110739Z 00012KT M10/M14 A3003 RMK A01 T11001138  RH  074%=      5-min Rain = 0
KHA2 110740Z 00012KT M10/M14 A3003 RMK A01 T11001138  RH  074%=      5-min Rain = 0
KHA2 110741Z 00012KT M10/M14 A3003 RMK A01 T11001138  RH  074%=      5-min Rain = 0
KHA2 110742Z 00013KT M10/M14 A3003 RMK A01 T11001138  RH  074%=      5-min Rain = 0
KHA2 110743Z 00013KT M10/M14 A3003 RMK A01 T11001138  RH  074%=      5-min Rain = 0
KHA2 110744Z 00011KT M10/M14 A3003 RMK A01 T11001138  RH  074%=      5-min Rain = 0
KHA2 110745Z 36012KT M10/M14 A3003 RMK A01 T11001138  RH  074%=      5-min Rain = 0
KHA2 110746Z 00012KT M10/M14 A3004 RMK A01 T11001138  RH  074%=      5-min Rain = 0
KHA2 110747Z 00011KT M10/M14 A3004 RMK A01 T11001138  RH  074%=      5-min Rain = 0
KHA2 110748Z 36013KT M10/M14 A3004 RMK A01 T11001138  RH  074%=      5-min Rain = 0
KHA2 110749Z 36011KT M10/M14 A3004 RMK A01 T11001138  RH  074%=      5-min Rain = 0
KHA2 110750Z 00012KT M10/M14 A3004 RMK A01 T11001138  RH  074%=      5-min Rain = 0
KHA2 110751Z 00011KT M10/M14 A3003 RMK A01 T11001138  RH  074%=      5-min Rain = 0
KHA2 110752Z 36012KT M10/M14 A3003 RMK A01 T11001138  RH  074%=      5-min Rain = 0
KHA2 110753Z 00012KT M10/M14 A3003 RMK A01 T11001138  RH  074%=      5-min Rain = 0
KHA2 110754Z 00012KT M10/M14 A3003 RMK A01 T11001138  RH  074%=      5-min Rain = 0
KHA2 110755Z 36013KT M10/M14 A3004 RMK A01 T11001138  RH  074%=      5-min Rain = 0
KHA2 110756Z 00012KT M10/M14 A3004 RMK A01 T11001138  RH  074%=      5-min Rain = 0
KHA2 110757Z 00011KT M10/M14 A3004 RMK A01 T11001138  RH  074%=      5-min Rain = 0
KHA2 110758Z 36012KT M10/M14 A3004 RMK A01 T11001138  RH  074%=      5-min Rain = 0
KHA2 110759Z 36010KT M10/M14 A3004 RMK A01 T11001138  RH  074%=      5-min Rain = 0
KHA2 110800Z 35010KT M10/M14 A3004 RMK A01 T11001138  RH  074%=      5-min Rain = 0
KHA2 110801Z 36011KT M10/M14 A3004 RMK A01 T11001138  RH  074%=      5-min Rain = 0
KHA2 110802Z 36012KT M10/M14 A3004 RMK A01 T11001138  RH  074%=      5-min Rain = 0
KHA2 110803Z 36012KT M10/M14 A3004 RMK A01 T11001138  RH  074%=      5-min Rain = 0
KHA2 110804Z 35013KT M10/M14 A3004 RMK A01 T11001138  RH  074%=      5-min Rain = 0
KHA2 110805Z 36013KT M10/M14 A3003 RMK A01 T11001138  RH  074%=      5-min Rain = 0
KHA2 110806Z 36012KT M10/M14 A3003 RMK A01 T11001138  RH  074%=      5-min Rain = 0
KHA2 110807Z 36012KT M10/M14 A3003 RMK A01 T11001138  RH  074%=      5-min Rain = 0
KHA2 110808Z 35013KT M10/M14 A3003 RMK A01 T11001138  RH  074%=      5-min Rain = 0
KHA2 110809Z 35013KT M10/M14 A3003 RMK A01 T11001138  RH  074%=      5-min Rain = 0
KHA2 110810Z 36013KT M10/M14 A3003 RMK A01 T11001138  RH  074%=      5-min Rain = 0
KHA2 110811Z 35011KT M10/M14 A3004 RMK A01 T11001138  RH  074%=      5-min Rain = 0
KHA2 110812Z 35011KT M10/M14 A3004 RMK A01 T11001138  RH  074%=      5-min Rain = 0
KHA2 110813Z 35011KT M10/M14 A3004 RMK A01 T11001138  RH  074%=      5-min Rain = 0
KHA2 110814Z 35012KT M10/M14 A3004 RMK A01 T11001138  RH  074%=      5-min Rain = 0
KHA2 110815Z 35012KT M10/M14 A3004 RMK A01 T11001138  RH  074%=      5-min Rain = 0
KHA2 110816Z 35013KT M10/M14 A3004 RMK A01 T10991137  RH  074%=      5-min Rain = 0
KHA2 110817Z 35012KT M10/M14 A3004 RMK A01 T10991137  RH  074%=      5-min Rain = 0
KHA2 110818Z 35012KT M10/M14 A3004 RMK A01 T10991137  RH  074%=      5-min Rain = 0
KHA2 110819Z 35012KT M10/M14 A3004 RMK A01 T10991137  RH  074%=      5-min Rain = 0
KHA2 110820Z 35013KT M10/M14 A3004 RMK A01 T10991137  RH  074%=      5-min Rain = 0
KHA2 110821Z 35014KT M10/M14 A3004 RMK A01 T10991137  RH  074%=      5-min Rain = 0
KHA2 110822Z 35014KT M10/M14 A3004 RMK A01 T10981136  RH  074%=      5-min Rain = 0
KHA2 110823Z 35013KT M10/M14 A3004 RMK A01 T10981137  RH  074%=      5-min Rain = 0
KHA2 110824Z 35014KT M10/M14 A3004 RMK A01 T10981136  RH  073%=      5-min Rain = 0
KHA2 110825Z 35013KT M10/M14 A3004 RMK A01 T10981136  RH  073%=      5-min Rain = 0
KHA2 110826Z 35014KT M10/M14 A3004 RMK A01 T10981136  RH  073%=      5-min Rain = 0
KHA2 110827Z 35012KT M10/M14 A3004 RMK A01 T10981137  RH  073%=      5-min Rain = 0
KHA2 110828Z 35013KT M10/M14 A3004 RMK A01 T10981137  RH  073%=      5-min Rain = 0
KHA2 110829Z 35013KT M10/M14 A3004 RMK A01 T10971137  RH  073%=      5-min Rain = 0
KHA2 110830Z 35013KT M10/M14 A3004 RMK A01 T10981137  RH  073%=      5-min Rain = 0
KHA2 110831Z 35013KT M10/M14 A3004 RMK A01 T10981137  RH  073%=      5-min Rain = 0
KHA2 110832Z 35013KT M10/M14 A3004 RMK A01 T10971136  RH  073%=      5-min Rain = 0
KHA2 110833Z 35013KT M10/M14 A3004 RMK A01 T10971137  RH  073%=      5-min Rain = 0
KHA2 110834Z 35012KT M10/M14 A3004 RMK A01 T10971137  RH  073%=      5-min Rain = 0
KHA2 110835Z 35012KT M10/M14 A3004 RMK A01 T10971136  RH  073%=      5-min Rain = 0
KHA2 110836Z 35012KT M10/M14 A3004 RMK A01 T10971137  RH  073%=      5-min Rain = 0
KHA2 110837Z 35014KT M10/M14 A3004 RMK A01 T10971137  RH  073%=      5-min Rain = 0
KHA2 110838Z 35013KT M10/M14 A3004 RMK A01 T10971136  RH  073%=      5-min Rain = 0
KHA2 110839Z 35012KT M10/M14 A3004 RMK A01 T10971137  RH  073%=      5-min Rain = 0
KHA2 110840Z 35014KT M10/M14 A3004 RMK A01 T10971137  RH  073%=      5-min Rain = 0
KHA2 110841Z 35014KT M10/M14 A3004 RMK A01 T10971137  RH  073%=      5-min Rain = 0
KHA2 110842Z 35012KT M10/M14 A3004 RMK A01 T10971136  RH  073%=      5-min Rain = 0
KHA2 110843Z 35013KT M10/M14 A3004 RMK A01 T10971137  RH  073%=      5-min Rain = 0
KHA2 110844Z 35013KT M10/M14 A3004 RMK A01 T10971136  RH  073%=      5-min Rain = 0
KHA2 110845Z 35014KT M10/M14 A3004 RMK A01 T10971136  RH  073%=      5-min Rain = 0
KHA2 110846Z 36013KT M10/M14 A3004 RMK A01 T10971137  RH  073%=      5-min Rain = 0
KHA2 110847Z 35014KT M10/M14 A3004 RMK A01 T10971137  RH  073%=      5-min Rain = 0
KHA2 110848Z 35015KT M10/M14 A3004 RMK A01 T10971136  RH  073%=      5-min Rain = 0
KHA2 110849Z 35014KT M10/M14 A3004 RMK A01 T10971136  RH  073%=      5-min Rain = 0
KHA2 110850Z 35014KT M10/M14 A3004 RMK A01 T10971137  RH  073%=      5-min Rain = 0
KHA2 110851Z 35014KT M10/M14 A3004 RMK A01 T10971136  RH  073%=      5-min Rain = 0
KHA2 110852Z 35013KT M10/M14 A3004 RMK A01 T10971136  RH  073%=      5-min Rain = 0
KHA2 110853Z 35013KT M10/M14 A3004 RMK A01 T10971136  RH  073%=      5-min Rain = 0
KHA2 110854Z 36013KT M10/M14 A3004 RMK A01 T10971136  RH  073%=      5-min Rain = 0
KHA2 110855Z 00011KT M10/M14 A3003 RMK A01 T10971136  RH  073%=      5-min Rain = 0
KHA2 110856Z 36010KT M10/M14 A3003 RMK A01 T10971136  RH  073%=      5-min Rain = 0
KHA2 110857Z 36011KT M10/M14 A3004 RMK A01 T10971136  RH  073%=      5-min Rain = 0
KHA2 110858Z 00012KT M10/M14 A3003 RMK A01 T10971136  RH  073%=      5-min Rain = 0
KHA2 110859Z 00013KT M10/M14 A3003 RMK A01 T10971136  RH  073%=      5-min Rain = 0
KHA2 110900Z 36011KT M10/M14 A3003 RMK A01 T10971136  RH  073%=      5-min Rain = 0
KHA2 110901Z 36011KT M10/M14 A3003 RMK A01 T10971136  RH  073%=      5-min Rain = 0
KHA2 110902Z 36012KT M10/M14 A3003 RMK A01 T10971136  RH  073%=      5-min Rain = 0
KHA2 110903Z 36009KT M10/M14 A3004 RMK A01 T10971136  RH  073%=      5-min Rain = 0
KHA2 110904Z 35010KT M10/M14 A3004 RMK A01 T10971136  RH  073%=      5-min Rain = 0
KHA2 110905Z 35010KT M10/M14 A3004 RMK A01 T10971136  RH  073%=      5-min Rain = 0
KHA2 110906Z 35011KT M10/M14 A3004 RMK A01 T10971137  RH  073%=      5-min Rain = 0
KHA2 110907Z 35011KT M10/M14 A3004 RMK A01 T10971136  RH  073%=      5-min Rain = 0
KHA2 110908Z 35011KT M10/M14 A3004 RMK A01 T10971136  RH  073%=      5-min Rain = 0
KHA2 110909Z 35010KT M10/M14 A3004 RMK A01 T10971136  RH  073%=      5-min Rain = 0
KHA2 110910Z 36011KT M10/M14 A3004 RMK A01 T10971136  RH  073%=      5-min Rain = 0
KHA2 110911Z 36011KT M10/M14 A3004 RMK A01 T10971136  RH  073%=      5-min Rain = 0
KHA2 110912Z 00012KT M10/M14 A3004 RMK A01 T10971136  RH  073%=      5-min Rain = 0
KHA2 110913Z 36011KT M10/M14 A3004 RMK A01 T10971136  RH  073%=      5-min Rain = 0
KHA2 110914Z 35012KT M10/M14 A3004 RMK A01 T10971136  RH  073%=      5-min Rain = 0
KHA2 110915Z 36012KT M10/M14 A3004 RMK A01 T10971136  RH  073%=      5-min Rain = 0
KHA2 110916Z 35012KT M10/M14 A3004 RMK A01 T10971136  RH  073%=      5-min Rain = 0
KHA2 110917Z 36010KT M10/M14 A3004 RMK A01 T10961136  RH  073%=      5-min Rain = 0
KHA2 110918Z 00009KT M10/M14 A3004 RMK A01 T10961136  RH  073%=      5-min Rain = 0
KHA2 110919Z 36012KT M10/M14 A3004 RMK A01 T10961136  RH  073%=      5-min Rain = 0
KHA2 110920Z 36010KT M10/M14 A3004 RMK A01 T10961136  RH  073%=      5-min Rain = 0
KHA2 110921Z 36012KT M10/M14 A3004 RMK A01 T10961136  RH  073%=      5-min Rain = 0
KHA2 110922Z 36013KT M10/M14 A3004 RMK A01 T10961136  RH  073%=      5-min Rain = 0
KHA2 110923Z 36013KT M10/M14 A3004 RMK A01 T10961136  RH  073%=      5-min Rain = 0
KHA2 110924Z 36013KT M10/M14 A3004 RMK A01 T10961136  RH  073%=      5-min Rain = 0
KHA2 110925Z 00010KT M10/M14 A3004 RMK A01 T10961136  RH  073%=      5-min Rain = 0
KHA2 110926Z 36011KT M10/M14 A3004 RMK A01 T10961136  RH  072%=      5-min Rain = 0
KHA2 110927Z 36010KT M10/M14 A3004 RMK A01 T10951136  RH  072%=      5-min Rain = 0
KHA2 110928Z 00011KT M10/M14 A3004 RMK A01 T10951136  RH  072%=      5-min Rain = 0
KHA2 110929Z 00012KT M10/M14 A3004 RMK A01 T10961136  RH  072%=      5-min Rain = 0
KHA2 110930Z 00011KT M10/M14 A3004 RMK A01 T10951136  RH  072%=      5-min Rain = 0
KHA2 110931Z 36012KT M10/M14 A3004 RMK A01 T10951136  RH  072%=      5-min Rain = 0
KHA2 110932Z 36011KT M10/M14 A3004 RMK A01 T10951136  RH  072%=      5-min Rain = 0
KHA2 110933Z 00011KT M10/M14 A3004 RMK A01 T10951136  RH  072%=      5-min Rain = 0
KHA2 110934Z 36011KT M10/M14 A3004 RMK A01 T10951136  RH  072%=      5-min Rain = 0
KHA2 110935Z 36010KT M10/M14 A3005 RMK A01 T10951136  RH  072%=      5-min Rain = 0
KHA2 110936Z 36009KT M10/M14 A3004 RMK A01 T10951136  RH  072%=      5-min Rain = 0
KHA2 110937Z 00012KT M10/M14 A3005 RMK A01 T10951136  RH  072%=      5-min Rain = 0
KHA2 110938Z 00013KT M10/M14 A3004 RMK A01 T10951136  RH  072%=      5-min Rain = 0
KHA2 110939Z 00013KT M10/M14 A3004 RMK A01 T10951136  RH  072%=      5-min Rain = 0
KHA2 110940Z 36012KT M10/M14 A3004 RMK A01 T10951135  RH  072%=      5-min Rain = 0
KHA2 110941Z 36010KT M10/M14 A3004 RMK A01 T10951136  RH  072%=      5-min Rain = 0
KHA2 110942Z 00011KT M10/M14 A3004 RMK A01 T10951136  RH  072%=      5-min Rain = 0
KHA2 110943Z 00012KT M10/M14 A3004 RMK A01 T10951136  RH  072%=      5-min Rain = 0
KHA2 110944Z 00012KT M10/M14 A3004 RMK A01 T10951136  RH  072%=      5-min Rain = 0
KHA2 110945Z 36012KT M10/M14 A3004 RMK A01 T10951136  RH  072%=      5-min Rain = 0
KHA2 110946Z 35013KT M10/M14 A3004 RMK A01 T10951136  RH  072%=      5-min Rain = 0
KHA2 110947Z 36011KT M09/M14 A3005 RMK A01 T10941136  RH  072%=      5-min Rain = 0
KHA2 110948Z 35013KT M09/M14 A3005 RMK A01 T10941136  RH  072%=      5-min Rain = 0
KHA2 110949Z 35011KT M09/M14 A3005 RMK A01 T10941136  RH  072%=      5-min Rain = 0
KHA2 110950Z 36010KT M09/M14 A3005 RMK A01 T10941135  RH  072%=      5-min Rain = 0
KHA2 110951Z 35011KT M09/M14 A3005 RMK A01 T10941136  RH  072%=      5-min Rain = 0
KHA2 110952Z 35010KT M09/M14 A3005 RMK A01 T10941136  RH  071%=      5-min Rain = 0
KHA2 110953Z 36010KT M09/M14 A3005 RMK A01 T10941136  RH  071%=      5-min Rain = 0
KHA2 110954Z 36012KT M09/M14 A3005 RMK A01 T10931136  RH  071%=      5-min Rain = 0
KHA2 110955Z 36012KT M09/M14 A3005 RMK A01 T10941136  RH  071%=      5-min Rain = 0
KHA2 110956Z 36014KT M09/M14 A3005 RMK A01 T10931136  RH  071%=      5-min Rain = 0
KHA2 110957Z 00013KT M09/M14 A3005 RMK A01 T10931136  RH  071%=      5-min Rain = 0
KHA2 110958Z 35011KT M09/M14 A3005 RMK A01 T10941137  RH  071%=      5-min Rain = 0
KHA2 110959Z 35012KT M09/M14 A3005 RMK A01 T10931136  RH  071%=      5-min Rain = 0
KHA2 111000Z 35013KT M09/M14 A3005 RMK A01 T10931136  RH  071%=      5-min Rain = 0
KHA2 111001Z 35013KT M09/M14 A3005 RMK A01 T10931136  RH  071%=      5-min Rain = 0
KHA2 111002Z 35013KT M09/M14 A3005 RMK A01 T10931137  RH  071%=      5-min Rain = 0
KHA2 111003Z 35014KT M09/M14 A3005 RMK A01 T10921136  RH  071%=      5-min Rain = 0
KHA2 111004Z 36013KT M09/M14 A3005 RMK A01 T10931137  RH  070%=      5-min Rain = 0
KHA2 111005Z 35012KT M09/M14 A3005 RMK A01 T10931137  RH  070%=      5-min Rain = 0
KHA2 111006Z 35012KT M09/M14 A3005 RMK A01 T10921136  RH  070%=      5-min Rain = 0
KHA2 111007Z 35012KT M09/M14 A3005 RMK A01 T10921137  RH  070%=      5-min Rain = 0
KHA2 111008Z 35011KT M09/M14 A3006 RMK A01 T10921136  RH  070%=      5-min Rain = 0
KHA2 111009Z 35011KT M09/M14 A3006 RMK A01 T10921136  RH  070%=      5-min Rain = 0
KHA2 111010Z 35011KT M09/M14 A3006 RMK A01 T10921136  RH  070%=      5-min Rain = 0
KHA2 111011Z 35011KT M09/M14 A3006 RMK A01 T10921136  RH  070%=      5-min Rain = 0
KHA2 111012Z 36012KT M09/M14 A3005 RMK A01 T10921136  RH  070%=      5-min Rain = 0
KHA2 111013Z 36011KT M09/M14 A3006 RMK A01 T10921136  RH  070%=      5-min Rain = 0
KHA2 111014Z 35011KT M09/M14 A3006 RMK A01 T10921137  RH  070%=      5-min Rain = 0
KHA2 111015Z 35013KT M09/M14 A3006 RMK A01 T10921137  RH  070%=      5-min Rain = 0
KHA2 111016Z 35012KT M09/M14 A3006 RMK A01 T10921137  RH  070%=      5-min Rain = 0
KHA2 111017Z 34012KT M09/M14 A3006 RMK A01 T10921137  RH  070%=      5-min Rain = 0
KHA2 111018Z 35012KT M09/M14 A3006 RMK A01 T10921137  RH  070%=      5-min Rain = 0
KHA2 111019Z 36011KT M09/M14 A3006 RMK A01 T10911137  RH  070%=      5-min Rain = 0
KHA2 111020Z 35010KT M09/M14 A3006 RMK A01 T10921137  RH  070%=      5-min Rain = 0
KHA2 111021Z 35010KT M09/M14 A3005 RMK A01 T10921137  RH  070%=      5-min Rain = 0
KHA2 111022Z 35011KT M09/M14 A3005 RMK A01 T10911137  RH  070%=      5-min Rain = 0
KHA2 111023Z 36011KT M09/M14 A3005 RMK A01 T10911137  RH  069%=      5-min Rain = 0
KHA2 111024Z 35012KT M09/M14 A3005 RMK A01 T10911137  RH  069%=      5-min Rain = 0
KHA2 111025Z 35013KT M09/M14 A3006 RMK A01 T10911137  RH  069%=      5-min Rain = 0
KHA2 111026Z 35013KT M09/M14 A3006 RMK A01 T10911137  RH  069%=      5-min Rain = 0
KHA2 111027Z 35013KT M09/M14 A3006 RMK A01 T10911138  RH  069%=      5-min Rain = 0
KHA2 111028Z 35013KT M09/M14 A3006 RMK A01 T10911138  RH  069%=      5-min Rain = 0
KHA2 111029Z 35013KT M09/M14 A3006 RMK A01 T10911138  RH  069%=      5-min Rain = 0
KHA2 111030Z 35013KT M09/M14 A3006 RMK A01 T10911138  RH  069%=      5-min Rain = 0
KHA2 111031Z 35012KT M09/M14 A3006 RMK A01 T10911138  RH  068%=      5-min Rain = 0
KHA2 111032Z 35010KT M09/M14 A3006 RMK A01 T10901138  RH  068%=      5-min Rain = 0
KHA2 111033Z 36012KT M09/M14 A3006 RMK A01 T10901138  RH  068%=      5-min Rain = 0
KHA2 111034Z 35011KT M09/M14 A3006 RMK A01 T10901138  RH  068%=      5-min Rain = 0
KHA2 111035Z 36010KT M09/M14 A3006 RMK A01 T10901138  RH  068%=      5-min Rain = 0
KHA2 111036Z 00010KT M09/M14 A3006 RMK A01 T10901138  RH  068%=      5-min Rain = 0
KHA2 111037Z 35010KT M09/M14 A3006 RMK A01 T10901138  RH  068%=      5-min Rain = 0
KHA2 111038Z 35010KT M09/M14 A3006 RMK A01 T10901138  RH  068%=      5-min Rain = 0
KHA2 111039Z 35010KT M09/M14 A3006 RMK A01 T10901138  RH  068%=      5-min Rain = 0
KHA2 111040Z 35009KT M09/M14 A3006 RMK A01 T10901139  RH  068%=      5-min Rain = 0
KHA2 111041Z 36012KT M09/M14 A3006 RMK A01 T10901139  RH  068%=      5-min Rain = 0
KHA2 111042Z 35011KT M09/M14 A3006 RMK A01 T10891139  RH  067%=      5-min Rain = 0
KHA2 111043Z 36013KT M09/M14 A3006 RMK A01 T10891139  RH  067%=      5-min Rain = 0
KHA2 111044Z 36013KT M09/M14 A3006 RMK A01 T10891139  RH  067%=      5-min Rain = 0
KHA2 111045Z 36012KT M09/M14 A3006 RMK A01 T10891139  RH  067%=      5-min Rain = 0
KHA2 111046Z 35011KT M09/M14 A3006 RMK A01 T10891139  RH  067%=      5-min Rain = 0
KHA2 111047Z 35011KT M09/M14 A3006 RMK A01 T10891139  RH  067%=      5-min Rain = 0
KHA2 111048Z 35011KT M09/M14 A3006 RMK A01 T10891139  RH  067%=      5-min Rain = 0
KHA2 111049Z 35012KT M09/M14 A3006 RMK A01 T10891139  RH  067%=      5-min Rain = 0
KHA2 111050Z 35013KT M09/M14 A3007 RMK A01 T10901139  RH  067%=      5-min Rain = 0
KHA2 111051Z 35014KT M09/M14 A3006 RMK A01 T10891139  RH  067%=      5-min Rain = 0
KHA2 111052Z 35012KT M09/M14 A3007 RMK A01 T10891139  RH  067%=      5-min Rain = 0
KHA2 111053Z 35014KT M09/M14 A3007 RMK A01 T10891140  RH  067%=      5-min Rain = 0
KHA2 111054Z 36013KT M09/M14 A3007 RMK A01 T10891140  RH  067%=      5-min Rain = 0
KHA2 111055Z 00013KT M09/M14 A3006 RMK A01 T10891140  RH  067%=      5-min Rain = 0
KHA2 111056Z 36013KT M09/M14 A3006 RMK A01 T10891140  RH  067%=      5-min Rain = 0
KHA2 111057Z 36011KT M09/M14 A3007 RMK A01 T10891140  RH  067%=      5-min Rain = 0
KHA2 111058Z 35011KT M09/M14 A3007 RMK A01 T10891140  RH  067%=      5-min Rain = 0
KHA2 111059Z 35011KT M09/M14 A3007 RMK A01 T10901140  RH  067%=      5-min Rain = 0
KHA2 111100Z 36012KT M09/M14 A3007 RMK A01 T10891140  RH  067%=      5-min Rain = 0
KHA2 111101Z 35010KT M09/M14 A3007 RMK A01 T10891140  RH  067%=      5-min Rain = 0
KHA2 111102Z 35012KT M09/M14 A3007 RMK A01 T10901140  RH  067%=      5-min Rain = 0
KHA2 111103Z 35012KT M09/M14 A3007 RMK A01 T10891139  RH  067%=      5-min Rain = 0
KHA2 111104Z 35013KT M09/M14 A3007 RMK A01 T10891139  RH  067%=      5-min Rain = 0
KHA2 111105Z 35013KT M09/M14 A3007 RMK A01 T10891139  RH  067%=      5-min Rain = 0
KHA2 111106Z 35013KT M09/M14 A3007 RMK A01 T10891139  RH  067%=      5-min Rain = 0
KHA2 111107Z 35011KT M09/M14 A3007 RMK A01 T10891139  RH  067%=      5-min Rain = 0
KHA2 111108Z 35012KT M09/M14 A3007 RMK A01 T10891139  RH  067%=      5-min Rain = 0
KHA2 111109Z 35012KT M09/M14 A3007 RMK A01 T10891139  RH  067%=      5-min Rain = 0
KHA2 111110Z 35012KT M09/M14 A3007 RMK A01 T10891139  RH  067%=      5-min Rain = 0
KHA2 111111Z 35011KT M09/M14 A3007 RMK A01 T10891139  RH  067%=      5-min Rain = 0
KHA2 111112Z 35012KT M09/M14 A3007 RMK A01 T10901139  RH  067%=      5-min Rain = 0
KHA2 111113Z 35011KT M09/M14 A3007 RMK A01 T10891138  RH  067%=      5-min Rain = 0
KHA2 111114Z 00011KT M09/M14 A3007 RMK A01 T10891139  RH  067%=      5-min Rain = 0
KHA2 111115Z 36011KT M09/M14 A3007 RMK A01 T10891139  RH  067%=      5-min Rain = 0
KHA2 111116Z 35011KT M09/M14 A3007 RMK A01 T10891138  RH  067%=      5-min Rain = 0
KHA2 111117Z 35013KT M09/M14 A3007 RMK A01 T10881138  RH  067%=      5-min Rain = 0
KHA2 111118Z 36013KT M09/M14 A3007 RMK A01 T10891138  RH  067%=      5-min Rain = 0
KHA2 111119Z 35011KT M09/M14 A3007 RMK A01 T10881138  RH  067%=      5-min Rain = 0
KHA2 111120Z 35012KT M09/M14 A3007 RMK A01 T10881138  RH  067%=      5-min Rain = 0
KHA2 111121Z 35010KT M09/M14 A3007 RMK A01 T10891138  RH  067%=      5-min Rain = 0
KHA2 111122Z 36010KT M09/M14 A3007 RMK A01 T10881138  RH  067%=      5-min Rain = 0
KHA2 111123Z 35009KT M09/M14 A3007 RMK A01 T10881138  RH  067%=      5-min Rain = 0
KHA2 111124Z 35009KT M09/M14 A3007 RMK A01 T10891138  RH  068%=      5-min Rain = 0
KHA2 111125Z 35010KT M09/M14 A3007 RMK A01 T10891137  RH  068%=      5-min Rain = 0
KHA2 111126Z 35011KT M09/M14 A3007 RMK A01 T10891137  RH  068%=      5-min Rain = 0
KHA2 111127Z 35010KT M09/M14 A3008 RMK A01 T10901138  RH  068%=      5-min Rain = 0
KHA2 111128Z 35010KT M09/M14 A3008 RMK A01 T10891137  RH  068%=      5-min Rain = 0
KHA2 111129Z 36010KT M09/M14 A3008 RMK A01 T10891137  RH  068%=      5-min Rain = 0
KHA2 111130Z 00011KT M09/M14 A3007 RMK A01 T10891137  RH  068%=      5-min Rain = 0
KHA2 111131Z 35010KT M09/M14 A3008 RMK A01 T10891137  RH  068%=      5-min Rain = 0
KHA2 111132Z 35010KT M09/M14 A3008 RMK A01 T10891137  RH  068%=      5-min Rain = 0
KHA2 111133Z 35010KT M09/M14 A3008 RMK A01 T10891137  RH  068%=      5-min Rain = 0
KHA2 111134Z 35008KT M09/M14 A3008 RMK A01 T10891137  RH  068%=      5-min Rain = 0
KHA2 111135Z 36009KT M09/M14 A3008 RMK A01 T10891136  RH  068%=      5-min Rain = 0
KHA2 111136Z 36009KT M09/M14 A3008 RMK A01 T10891137  RH  068%=      5-min Rain = 0
KHA2 111137Z 35009KT M09/M14 A3008 RMK A01 T10891137  RH  068%=      5-min Rain = 0
KHA2 111138Z 35010KT M09/M14 A3008 RMK A01 T10881136  RH  068%=      5-min Rain = 0
KHA2 111139Z 35009KT M09/M14 A3008 RMK A01 T10891137  RH  068%=      5-min Rain = 0
KHA2 111140Z 35010KT M09/M14 A3008 RMK A01 T10891137  RH  068%=      5-min Rain = 0
KHA2 111141Z 35009KT M09/M14 A3008 RMK A01 T10891137  RH  069%=      5-min Rain = 0
KHA2 111142Z 35010KT M09/M14 A3008 RMK A01 T10891136  RH  069%=      5-min Rain = 0
KHA2 111143Z 35010KT M09/M14 A3008 RMK A01 T10901137  RH  069%=      5-min Rain = 0
KHA2 111144Z 35010KT M09/M14 A3008 RMK A01 T10891136  RH  069%=      5-min Rain = 0
KHA2 111145Z 34009KT M09/M14 A3008 RMK A01 T10891136  RH  069%=      5-min Rain = 0
KHA2 111146Z 34009KT M09/M14 A3008 RMK A01 T10891136  RH  069%=      5-min Rain = 0
KHA2 111147Z 35008KT M09/M14 A3008 RMK A01 T10891136  RH  069%=      5-min Rain = 0
KHA2 111148Z 35008KT M09/M14 A3008 RMK A01 T10891136  RH  069%=      5-min Rain = 0
KHA2 111149Z 35009KT M09/M14 A3008 RMK A01 T10891136  RH  069%=      5-min Rain = 0
KHA2 111150Z 35011KT M09/M14 A3009 RMK A01 T10891136  RH  069%=      5-min Rain = 0
KHA2 111151Z 35010KT M09/M14 A3009 RMK A01 T10891136  RH  069%=      5-min Rain = 0
KHA2 111152Z 35010KT M09/M14 A3009 RMK A01 T10891136  RH  069%=      5-min Rain = 0
KHA2 111153Z 35010KT M09/M14 A3009 RMK A01 T10891136  RH  069%=      5-min Rain = 0
KHA2 111154Z 35010KT M09/M14 A3009 RMK A01 T10891136  RH  069%=      5-min Rain = 0
KHA2 111155Z 35008KT M09/M14 A3009 RMK A01 T10891136  RH  069%=      5-min Rain = 0
KHA2 111156Z 35010KT M09/M14 A3009 RMK A01 T10891136  RH  068%=      5-min Rain = 0
KHA2 111157Z 35011KT M09/M14 A3009 RMK A01 T10891136  RH  068%=      5-min Rain = 0
KHA2 111158Z 35010KT M09/M14 A3009 RMK A01 T10881136  RH  068%=      5-min Rain = 0
KHA2 111159Z 35008KT M09/M14 A3009 RMK A01 T10881136  RH  068%=      5-min Rain = 0
KHA2 111200Z 35009KT M09/M14 A3009 RMK A01 T10891136  RH  068%=      5-min Rain = 0
KHA2 111201Z 34008KT M09/M14 A3009 RMK A01 T10881136  RH  068%=      5-min Rain = 0
KHA2 111202Z 35009KT M09/M14 A3009 RMK A01 T10881136  RH  068%=      5-min Rain = 0
KHA2 111203Z 35009KT M09/M14 A3009 RMK A01 T10891136  RH  068%=      5-min Rain = 0
KHA2 111204Z 35011KT M09/M14 A3009 RMK A01 T10891136  RH  068%=      5-min Rain = 0
KHA2 111205Z 36009KT M09/M14 A3009 RMK A01 T10891136  RH  069%=      5-min Rain = 0
KHA2 111206Z 35009KT M09/M14 A3009 RMK A01 T10891136  RH  069%=      5-min Rain = 0
KHA2 111207Z 35011KT M09/M14 A3009 RMK A01 T10891136  RH  069%=      5-min Rain = 0
KHA2 111208Z 35009KT M09/M14 A3009 RMK A01 T10891136  RH  069%=      5-min Rain = 0
KHA2 111209Z 35008KT M09/M14 A3009 RMK A01 T10891136  RH  069%=      5-min Rain = 0
KHA2 111210Z 35009KT M09/M14 A3009 RMK A01 T10901136  RH  069%=      5-min Rain = 0
KHA2 111211Z 35009KT M09/M14 A3009 RMK A01 T10891136  RH  069%=      5-min Rain = 0
KHA2 111212Z 35009KT M09/M14 A3009 RMK A01 T10891136  RH  069%=      5-min Rain = 0
KHA2 111213Z 35009KT M09/M14 A3009 RMK A01 T10891136  RH  069%=      5-min Rain = 0
KHA2 111214Z 34009KT M09/M14 A3009 RMK A01 T10891136  RH  069%=      5-min Rain = 0
KHA2 111215Z 35010KT M09/M14 A3009 RMK A01 T10891136  RH  069%=      5-min Rain = 0
KHA2 111216Z 35011KT M09/M14 A3009 RMK A01 T10891136  RH  069%=      5-min Rain = 0
KHA2 111217Z 35010KT M09/M14 A3009 RMK A01 T10901137  RH  069%=      5-min Rain = 0
KHA2 111218Z 34009KT M09/M14 A3009 RMK A01 T10901136  RH  069%=      5-min Rain = 0
KHA2 111219Z 34009KT M09/M14 A3009 RMK A01 T10901137  RH  069%=      5-min Rain = 0
KHA2 111220Z 34010KT M09/M14 A3009 RMK A01 T10901137  RH  069%=      5-min Rain = 0
KHA2 111221Z 34010KT M09/M14 A301 RMK A01 T10901137  RH  069%=      5-min Rain = 0
KHA2 111222Z 34010KT M09/M14 A301 RMK A01 T10901137  RH  069%=      5-min Rain = 0
KHA2 111223Z 34010KT M09/M14 A301 RMK A01 T10901137  RH  069%=      5-min Rain = 0
KHA2 111224Z 34010KT M09/M14 A301 RMK A01 T10901137  RH  069%=      5-min Rain = 0
KHA2 111225Z 34009KT M09/M14 A301 RMK A01 T10901137  RH  069%=      5-min Rain = 0
KHA2 111226Z 34009KT M09/M14 A301 RMK A01 T10901137  RH  069%=      5-min Rain = 0
KHA2 111227Z 34009KT M09/M14 A301 RMK A01 T10901137  RH  069%=      5-min Rain = 0
KHA2 111228Z 35010KT M09/M14 A301 RMK A01 T10901137  RH  069%=      5-min Rain = 0
KHA2 111229Z 34008KT M09/M14 A301 RMK A01 T10901137  RH  069%=      5-min Rain = 0
KHA2 111230Z 34010KT M09/M14 A301 RMK A01 T10901137  RH  069%=      5-min Rain = 0
KHA2 111231Z 34011KT M09/M14 A301 RMK A01 T10901137  RH  069%=      5-min Rain = 0
KHA2 111232Z 34011KT M09/M14 A301 RMK A01 T10901137  RH  069%=      5-min Rain = 0
KHA2 111233Z 34011KT M09/M14 A3011 RMK A01 T10901137  RH  069%=      5-min Rain = 0
KHA2 111234Z 34009KT M09/M14 A3011 RMK A01 T10901136  RH  069%=      5-min Rain = 0
KHA2 111235Z 34011KT M09/M14 A3011 RMK A01 T10901137  RH  069%=      5-min Rain = 0
KHA2 111236Z 34011KT M09/M14 A3011 RMK A01 T10901137  RH  069%=      5-min Rain = 0
KHA2 111237Z 34010KT M09/M14 A3011 RMK A01 T10901136  RH  069%=      5-min Rain = 0
KHA2 111238Z 34010KT M09/M14 A3011 RMK A01 T10901136  RH  069%=      5-min Rain = 0
KHA2 111239Z 33009KT M09/M14 A3011 RMK A01 T10901136  RH  069%=      5-min Rain = 0
KHA2 111240Z 33009KT M09/M14 A3011 RMK A01 T10891136  RH  069%=      5-min Rain = 0
KHA2 111241Z 33010KT M09/M14 A3011 RMK A01 T10891136  RH  069%=      5-min Rain = 0
KHA2 111242Z 34011KT M09/M14 A3011 RMK A01 T10901136  RH  069%=      5-min Rain = 0
KHA2 111243Z 33010KT M09/M14 A3011 RMK A01 T10891136  RH  069%=      5-min Rain = 0
KHA2 111244Z 34011KT M09/M14 A3011 RMK A01 T10891136  RH  069%=      5-min Rain = 0
KHA2 111245Z 34011KT M09/M14 A3011 RMK A01 T10891136  RH  069%=      5-min Rain = 0
KHA2 111246Z 34010KT M09/M14 A3011 RMK A01 T10891136  RH  069%=      5-min Rain = 0
KHA2 111247Z 33010KT M09/M14 A3011 RMK A01 T10891135  RH  069%=      5-min Rain = 0
KHA2 111248Z 33011KT M09/M14 A3011 RMK A01 T10891136  RH  069%=      5-min Rain = 0
KHA2 111249Z 33009KT M09/M14 A3011 RMK A01 T10891135  RH  069%=      5-min Rain = 0
KHA2 111250Z 33009KT M09/M14 A3011 RMK A01 T10881135  RH  069%=      5-min Rain = 0
KHA2 111251Z 33010KT M09/M14 A3011 RMK A01 T10881135  RH  069%=      5-min Rain = 0
KHA2 111252Z 33010KT M09/M14 A3011 RMK A01 T10881135  RH  069%=      5-min Rain = 0
KHA2 111253Z 33011KT M09/M14 A3011 RMK A01 T10881135  RH  069%=      5-min Rain = 0
KHA2 111254Z 33009KT M09/M14 A3011 RMK A01 T10881135  RH  069%=      5-min Rain = 0
KHA2 111255Z 33010KT M09/M14 A3012 RMK A01 T10881135  RH  069%=      5-min Rain = 0
KHA2 111256Z 33009KT M09/M14 A3012 RMK A01 T10881135  RH  069%=      5-min Rain = 0
KHA2 111257Z 33009KT M09/M14 A3012 RMK A01 T10881135  RH  069%=      5-min Rain = 0
KHA2 111258Z 33010KT M09/M14 A3012 RMK A01 T10881135  RH  069%=      5-min Rain = 0
KHA2 111259Z 33010KT M09/M14 A3012 RMK A01 T10881135  RH  069%=      5-min Rain = 0
KHA2 111300Z 33011KT M09/M14 A3012 RMK A01 T10871135  RH  069%=      5-min Rain = 0
KHA2 111301Z 33010KT M09/M14 A3012 RMK A01 T10871135  RH  069%=      5-min Rain = 0
KHA2 111302Z 33011KT M09/M14 A3012 RMK A01 T10871135  RH  069%=      5-min Rain = 0
KHA2 111303Z 33009KT M09/M13 A3012 RMK A01 T10871134  RH  069%=      5-min Rain = 0
KHA2 111304Z 33010KT M09/M13 A3012 RMK A01 T10871134  RH  069%=      5-min Rain = 0
KHA2 111305Z 33010KT M09/M14 A3012 RMK A01 T10871135  RH  069%=      5-min Rain = 0
KHA2 111306Z 33009KT M09/M13 A3012 RMK A01 T10871134  RH  069%=      5-min Rain = 0
KHA2 111307Z 34010KT M09/M13 A3012 RMK A01 T10871134  RH  069%=      5-min Rain = 0
KHA2 111308Z 34009KT M09/M13 A3012 RMK A01 T10871134  RH  069%=      5-min Rain = 0
KHA2 111309Z 34011KT M09/M13 A3012 RMK A01 T10871134  RH  069%=      5-min Rain = 0
KHA2 111310Z 34011KT M09/M13 A3012 RMK A01 T10871134  RH  069%=      5-min Rain = 0
KHA2 111311Z 34011KT M09/M14 A3012 RMK A01 T10871135  RH  069%=      5-min Rain = 0
KHA2 111312Z 34011KT M09/M13 A3012 RMK A01 T10871134  RH  069%=      5-min Rain = 0
KHA2 111313Z 34011KT M09/M13 A3012 RMK A01 T10871134  RH  069%=      5-min Rain = 0
KHA2 111314Z 33012KT M09/M13 A3012 RMK A01 T10871134  RH  069%=      5-min Rain = 0
KHA2 111315Z 33010KT M09/M13 A3012 RMK A01 T10861134  RH  069%=      5-min Rain = 0
KHA2 111316Z 34012KT M09/M13 A3012 RMK A01 T10861134  RH  069%=      5-min Rain = 0
KHA2 111317Z 33012KT M09/M13 A3012 RMK A01 T10861134  RH  068%=      5-min Rain = 0
KHA2 111318Z 33011KT M09/M13 A3012 RMK A01 T10861134  RH  068%=      5-min Rain = 0
KHA2 111319Z 33010KT M09/M13 A3013 RMK A01 T10861133  RH  068%=      5-min Rain = 0
KHA2 111320Z 33009KT M09/M13 A3013 RMK A01 T10851133  RH  068%=      5-min Rain = 0
KHA2 111321Z 34010KT M09/M13 A3013 RMK A01 T10851133  RH  068%=      5-min Rain = 0
KHA2 111322Z 33010KT M09/M13 A3013 RMK A01 T10851133  RH  068%=      5-min Rain = 0
KHA2 111323Z 33011KT M09/M13 A3013 RMK A01 T10851133  RH  068%=      5-min Rain = 0
KHA2 111324Z 33011KT M09/M13 A3013 RMK A01 T10851133  RH  068%=      5-min Rain = 0
KHA2 111325Z 33009KT M08/M13 A3013 RMK A01 T10841133  RH  068%=      5-min Rain = 0
KHA2 111326Z 33011KT M08/M13 A3013 RMK A01 T10841132  RH  068%=      5-min Rain = 0
KHA2 111327Z 33012KT M08/M13 A3013 RMK A01 T10841132  RH  068%=      5-min Rain = 0
KHA2 111328Z 33011KT M08/M13 A3013 RMK A01 T10841132  RH  068%=      5-min Rain = 0
KHA2 111329Z 33011KT M08/M13 A3013 RMK A01 T10841132  RH  068%=      5-min Rain = 0
KHA2 111330Z 33011KT M08/M13 A3013 RMK A01 T10841132  RH  068%=      5-min Rain = 0
KHA2 111331Z 34012KT M08/M13 A3013 RMK A01 T10841132  RH  068%=      5-min Rain = 0
KHA2 111332Z 34010KT M08/M13 A3012 RMK A01 T10831132  RH  068%=      5-min Rain = 0
KHA2 111333Z 34011KT M08/M13 A3012 RMK A01 T10841132  RH  068%=      5-min Rain = 0
KHA2 111334Z 34011KT M08/M13 A3012 RMK A01 T10831132  RH  068%=      5-min Rain = 0
KHA2 111335Z 34011KT M08/M13 A3012 RMK A01 T10831132  RH  068%=      5-min Rain = 0
KHA2 111336Z 34010KT M08/M13 A3012 RMK A01 T10831132  RH  068%=      5-min Rain = 0
KHA2 111337Z 34011KT M08/M13 A3012 RMK A01 T10831132  RH  068%=      5-min Rain = 0
KHA2 111338Z 33011KT M08/M13 A3012 RMK A01 T10831132  RH  068%=      5-min Rain = 0
KHA2 111339Z 33010KT M08/M13 A3012 RMK A01 T10831132  RH  068%=      5-min Rain = 0
KHA2 111340Z 33010KT M08/M13 A3012 RMK A01 T10831132  RH  068%=      5-min Rain = 0
KHA2 111341Z 33011KT M08/M13 A3012 RMK A01 T10831132  RH  068%=      5-min Rain = 0
KHA2 111342Z 34011KT M08/M13 A3012 RMK A01 T10831132  RH  068%=      5-min Rain = 0
KHA2 111343Z 33011KT M08/M13 A3013 RMK A01 T10831132  RH  068%=      5-min Rain = 0
KHA2 111344Z 33013KT M08/M13 A3013 RMK A01 T10831132  RH  068%=      5-min Rain = 0
KHA2 111345Z 34012KT M08/M13 A3013 RMK A01 T10831133  RH  068%=      5-min Rain = 0
KHA2 111346Z 33010KT M08/M13 A3013 RMK A01 T10831132  RH  068%=      5-min Rain = 0
KHA2 111347Z 33012KT M08/M13 A3013 RMK A01 T10841133  RH  068%=      5-min Rain = 0
KHA2 111348Z 33012KT M08/M13 A3013 RMK A01 T10831132  RH  068%=      5-min Rain = 0
KHA2 111349Z 33013KT M08/M13 A3013 RMK A01 T10831132  RH  068%=      5-min Rain = 0
KHA2 111350Z 33012KT M08/M13 A3013 RMK A01 T10841132  RH  068%=      5-min Rain = 0
KHA2 111351Z 33011KT M08/M13 A3013 RMK A01 T10831132  RH  068%=      5-min Rain = 0
KHA2 111352Z 33011KT M08/M13 A3013 RMK A01 T10831132  RH  068%=      5-min Rain = 0
KHA2 111353Z 34011KT M08/M13 A3013 RMK A01 T10831132  RH  068%=      5-min Rain = 0
KHA2 111354Z 34010KT M08/M13 A3013 RMK A01 T10831132  RH  068%=      5-min Rain = 0
KHA2 111355Z 34010KT M08/M13 A3013 RMK A01 T10831132  RH  068%=      5-min Rain = 0
KHA2 111356Z 34010KT M08/M13 A3013 RMK A01 T10821132  RH  068%=      5-min Rain = 0
KHA2 111357Z 33010KT M08/M13 A3014 RMK A01 T10821132  RH  068%=      5-min Rain = 0
KHA2 111358Z 34009KT M08/M13 A3014 RMK A01 T10821132  RH  067%=      5-min Rain = 0
KHA2 111359Z 33011KT M08/M13 A3014 RMK A01 T10811131  RH  067%=      5-min Rain = 0
KHA2 111400Z 33012KT M08/M13 A3014 RMK A01 T10811131  RH  067%=      5-min Rain = 0
KHA2 111401Z 33010KT M08/M13 A3014 RMK A01 T10811131  RH  067%=      5-min Rain = 0
KHA2 111402Z 33010KT M08/M13 A3014 RMK A01 T10811131  RH  067%=      5-min Rain = 0
KHA2 111403Z 33011KT M08/M13 A3014 RMK A01 T10811131  RH  067%=      5-min Rain = 0
KHA2 111404Z 33011KT M08/M13 A3014 RMK A01 T10801131  RH  067%=      5-min Rain = 0
KHA2 111405Z 33011KT M08/M13 A3014 RMK A01 T10801130  RH  067%=      5-min Rain = 0
KHA2 111406Z 34010KT M08/M13 A3014 RMK A01 T10801130  RH  067%=      5-min Rain = 0
KHA2 111407Z 34010KT M08/M13 A3014 RMK A01 T10801130  RH  067%=      5-min Rain = 0
KHA2 111408Z 34011KT M08/M13 A3014 RMK A01 T10801130  RH  067%=      5-min Rain = 0
KHA2 111409Z 34011KT M08/M13 A3014 RMK A01 T10791129  RH  067%=      5-min Rain = 0
KHA2 111410Z 34010KT M08/M13 A3014 RMK A01 T10791129  RH  067%=      5-min Rain = 0
KHA2 111411Z 33011KT M08/M13 A3014 RMK A01 T10781128  RH  067%=      5-min Rain = 0
KHA2 111412Z 33010KT M08/M13 A3014 RMK A01 T10771128  RH  067%=      5-min Rain = 0
KHA2 111413Z 34010KT M08/M13 A3014 RMK A01 T10771128  RH  067%=      5-min Rain = 0
KHA2 111414Z 34012KT M08/M13 A3014 RMK A01 T10771128  RH  067%=      5-min Rain = 0
KHA2 111415Z 34013KT M08/M13 A3014 RMK A01 T10761127  RH  067%=      5-min Rain = 0
KHA2 111416Z 34012KT M08/M13 A3014 RMK A01 T10771128  RH  067%=      5-min Rain = 0
KHA2 111417Z 33011KT M08/M13 A3014 RMK A01 T10761127  RH  067%=      5-min Rain = 0
KHA2 111418Z 34014KT M08/M13 A3014 RMK A01 T10761127  RH  067%=      5-min Rain = 0
KHA2 111419Z 33013KT M08/M13 A3014 RMK A01 T10761127  RH  067%=      5-min Rain = 0
KHA2 111420Z 33012KT M08/M13 A3014 RMK A01 T10761127  RH  067%=      5-min Rain = 0
KHA2 111421Z 34011KT M08/M13 A3014 RMK A01 T10751127  RH  067%=      5-min Rain = 0
KHA2 111422Z 34013KT M08/M13 A3014 RMK A01 T10751126  RH  066%=      5-min Rain = 0
KHA2 111423Z 34012KT M08/M13 A3014 RMK A01 T10751127  RH  066%=      5-min Rain = 0
KHA2 111424Z 33013KT M07/M13 A3015 RMK A01 T10741126  RH  066%=      5-min Rain = 0
KHA2 111425Z 34013KT M07/M13 A3015 RMK A01 T10741126  RH  066%=      5-min Rain = 0
KHA2 111426Z 33013KT M07/M13 A3015 RMK A01 T10741126  RH  066%=      5-min Rain = 0
KHA2 111427Z 33012KT M07/M13 A3015 RMK A01 T10731126  RH  066%=      5-min Rain = 0
KHA2 111428Z 33012KT M07/M13 A3015 RMK A01 T10731125  RH  066%=      5-min Rain = 0
KHA2 111429Z 33011KT M07/M13 A3015 RMK A01 T10721125  RH  066%=      5-min Rain = 0
KHA2 111430Z 33011KT M07/M13 A3015 RMK A01 T10721125  RH  066%=      5-min Rain = 0
KHA2 111431Z 33012KT M07/M13 A3015 RMK A01 T10711125  RH  066%=      5-min Rain = 0
KHA2 111432Z 33012KT M07/M13 A3015 RMK A01 T10711125  RH  066%=      5-min Rain = 0
KHA2 111433Z 33013KT M07/M13 A3015 RMK A01 T10711125  RH  065%=      5-min Rain = 0
KHA2 111434Z 33011KT M07/M13 A3015 RMK A01 T10711125  RH  065%=      5-min Rain = 0
KHA2 111435Z 33010KT M07/M12 A3015 RMK A01 T10701124  RH  066%=      5-min Rain = 0
KHA2 111436Z 33012KT M07/M12 A3015 RMK A01 T10681123  RH  065%=      5-min Rain = 0
KHA2 111437Z 33013KT M07/M12 A3015 RMK A01 T10681123  RH  065%=      5-min Rain = 0
KHA2 111438Z 34012KT M07/M12 A3015 RMK A01 T10681123  RH  065%=      5-min Rain = 0
KHA2 111439Z 34012KT M07/M12 A3015 RMK A01 T10681123  RH  065%=      5-min Rain = 0
KHA2 111440Z 34011KT M07/M12 A3015 RMK A01 T10681123  RH  065%=      5-min Rain = 0
KHA2 111441Z 34010KT M07/M12 A3015 RMK A01 T10681123  RH  065%=      5-min Rain = 0
KHA2 111442Z 34011KT M07/M12 A3015 RMK A01 T10671122  RH  065%=      5-min Rain = 0
KHA2 111443Z 33011KT M07/M12 A3016 RMK A01 T10671122  RH  065%=      5-min Rain = 0
KHA2 111444Z 33010KT M07/M12 A3016 RMK A01 T10671122  RH  065%=      5-min Rain = 0
KHA2 111445Z 34011KT M07/M12 A3016 RMK A01 T10671122  RH  065%=      5-min Rain = 0
KHA2 111446Z 33009KT M07/M12 A3016 RMK A01 T10661122  RH  065%=      5-min Rain = 0
KHA2 111447Z 33011KT M07/M12 A3016 RMK A01 T10661121  RH  065%=      5-min Rain = 0
KHA2 111448Z 34011KT M07/M12 A3016 RMK A01 T10651121  RH  064%=      5-min Rain = 0
KHA2 111449Z 33012KT M06/M12 A3016 RMK A01 T10641121  RH  064%=      5-min Rain = 0
KHA2 111450Z 33013KT M06/M12 A3016 RMK A01 T10641121  RH  064%=      5-min Rain = 0
KHA2 111451Z 34011KT M06/M12 A3016 RMK A01 T10641121  RH  064%=      5-min Rain = 0
KHA2 111452Z 34011KT M06/M12 A3016 RMK A01 T10631121  RH  064%=      5-min Rain = 0
KHA2 111453Z 34012KT M06/M12 A3016 RMK A01 T10631120  RH  064%=      5-min Rain = 0
KHA2 111454Z 34012KT M06/M12 A3016 RMK A01 T10631121  RH  064%=      5-min Rain = 0
KHA2 111455Z 33011KT M06/M12 A3016 RMK A01 T10631121  RH  064%=      5-min Rain = 0
KHA2 111456Z 34010KT M06/M12 A3016 RMK A01 T10621120  RH  064%=      5-min Rain = 0
KHA2 111457Z 34013KT M06/M12 A3016 RMK A01 T10621119  RH  064%=      5-min Rain = 0
KHA2 111458Z 34013KT M06/M12 A3016 RMK A01 T10611119  RH  064%=      5-min Rain = 0
KHA2 111459Z 34011KT M06/M12 A3016 RMK A01 T10611119  RH  064%=      5-min Rain = 0
KHA2 111500Z 33012KT M06/M12 A3016 RMK A01 T10611119  RH  064%=      5-min Rain = 0
KHA2 111501Z 33011KT M06/M12 A3016 RMK A01 T10611119  RH  064%=      5-min Rain = 0
KHA2 111502Z 34010KT M06/M12 A3016 RMK A01 T10601118  RH  064%=      5-min Rain = 0
KHA2 111503Z 34012KT M06/M12 A3016 RMK A01 T10591117  RH  064%=      5-min Rain = 0
KHA2 111504Z 34014KT M06/M12 A3016 RMK A01 T10591117  RH  063%=      5-min Rain = 0
KHA2 111505Z 34013KT M06/M12 A3016 RMK A01 T10591118  RH  063%=      5-min Rain = 0
KHA2 111506Z 33013KT M06/M12 A3016 RMK A01 T10591117  RH  063%=      5-min Rain = 0
KHA2 111507Z 34011KT M06/M12 A3016 RMK A01 T10591117  RH  063%=      5-min Rain = 0
KHA2 111508Z 33013KT M06/M12 A3016 RMK A01 T10581117  RH  063%=      5-min Rain = 0
KHA2 111509Z 33014KT M06/M12 A3016 RMK A01 T10581117  RH  063%=      5-min Rain = 0
KHA2 111510Z 33014KT M06/M12 A3016 RMK A01 T10581117  RH  063%=      5-min Rain = 0
KHA2 111511Z 34013KT M06/M12 A3016 RMK A01 T10581117  RH  063%=      5-min Rain = 0
KHA2 111512Z 34013KT M06/M12 A3016 RMK A01 T10571117  RH  063%=      5-min Rain = 0
KHA2 111513Z 34013KT M06/M12 A3016 RMK A01 T10561116  RH  063%=      5-min Rain = 0
KHA2 111514Z 34013KT M06/M12 A3016 RMK A01 T10561116  RH  063%=      5-min Rain = 0
KHA2 111515Z 34011KT M06/M12 A3016 RMK A01 T10561116  RH  062%=      5-min Rain = 0
KHA2 111516Z 34012KT M06/M12 A3016 RMK A01 T10551116  RH  062%=      5-min Rain = 0
KHA2 111517Z 34012KT M06/M12 A3016 RMK A01 T10551116  RH  062%=      5-min Rain = 0
KHA2 111518Z 34010KT M06/M12 A3016 RMK A01 T10551116  RH  062%=      5-min Rain = 0
KHA2 111519Z 33013KT M05/M12 A3016 RMK A01 T10541115  RH  062%=      5-min Rain = 0
KHA2 111520Z 33014KT M05/M12 A3016 RMK A01 T10531115  RH  062%=      5-min Rain = 0
KHA2 111521Z 33013KT M05/M12 A3017 RMK A01 T10531115  RH  062%=      5-min Rain = 0
KHA2 111522Z 34014KT M05/M12 A3017 RMK A01 T10531115  RH  062%=      5-min Rain = 0
KHA2 111523Z 34015KT M05/M12 A3017 RMK A01 T10521115  RH  062%=      5-min Rain = 0
KHA2 111524Z 34014KT M05/M11 A3017 RMK A01 T10521114  RH  061%=      5-min Rain = 0
KHA2 111525Z 34012KT M05/M11 A3017 RMK A01 T10511114  RH  061%=      5-min Rain = 0
KHA2 111526Z 34012KT M05/M11 A3017 RMK A01 T10501113  RH  061%=      5-min Rain = 0
KHA2 111527Z 34014KT M05/M11 A3017 RMK A01 T10481112  RH  061%=      5-min Rain = 0
KHA2 111528Z 33013KT M05/M11 A3017 RMK A01 T10481112  RH  061%=      5-min Rain = 0
KHA2 111529Z 34014KT M05/M11 A3017 RMK A01 T10481113  RH  061%=      5-min Rain = 0
KHA2 111530Z 34015KT M05/M11 A3017 RMK A01 T10481113  RH  061%=      5-min Rain = 0
KHA2 111531Z 34013KT M05/M11 A3017 RMK A01 T10481113  RH  061%=      5-min Rain = 0
KHA2 111532Z 34012KT M05/M11 A3017 RMK A01 T10481113  RH  061%=      5-min Rain = 0
KHA2 111533Z 34012KT M05/M11 A3017 RMK A01 T10471112  RH  061%=      5-min Rain = 0
KHA2 111534Z 35012KT M05/M11 A3018 RMK A01 T10461111  RH  061%=      5-min Rain = 0
KHA2 111535Z 34014KT M05/M11 A3018 RMK A01 T10451110  RH  060%=      5-min Rain = 0
KHA2 111536Z 34015KT M05/M11 A3018 RMK A01 T10451110  RH  060%=      5-min Rain = 0
KHA2 111537Z 34013KT M05/M11 A3018 RMK A01 T10451111  RH  060%=      5-min Rain = 0
KHA2 111538Z 34012KT M05/M11 A3018 RMK A01 T10451111  RH  060%=      5-min Rain = 0
KHA2 111539Z 35012KT M04/M11 A3018 RMK A01 T10441109  RH  060%=      5-min Rain = 0
KHA2 111540Z 34014KT M04/M11 A3018 RMK A01 T10431109  RH  060%=      5-min Rain = 0
KHA2 111541Z 34013KT M04/M11 A3018 RMK A01 T10431109  RH  060%=      5-min Rain = 0
KHA2 111542Z 34013KT M04/M11 A3018 RMK A01 T10421109  RH  060%=      5-min Rain = 0
KHA2 111543Z 34012KT M04/M11 A3018 RMK A01 T10421109  RH  059%=      5-min Rain = 0
KHA2 111544Z 33011KT M04/M11 A3018 RMK A01 T10421109  RH  059%=      5-min Rain = 0
KHA2 111545Z 33012KT M04/M11 A3018 RMK A01 T10411108  RH  060%=      5-min Rain = 0
KHA2 111546Z 33014KT M04/M11 A3018 RMK A01 T10401108  RH  059%=      5-min Rain = 0
KHA2 111547Z 33015KT M04/M11 A3018 RMK A01 T10401109  RH  059%=      5-min Rain = 0
KHA2 111548Z 34016KT M04/M11 A3018 RMK A01 T10411110  RH  059%=      5-min Rain = 0
KHA2 111549Z 34015KT M04/M11 A3018 RMK A01 T10401108  RH  059%=      5-min Rain = 0
KHA2 111550Z 34015KT M04/M11 A3018 RMK A01 T10391109  RH  058%=      5-min Rain = 0
KHA2 111551Z 33016KT M04/M11 A3018 RMK A01 T10401110  RH  058%=      5-min Rain = 0
KHA2 111552Z 34016KT M04/M11 A3018 RMK A01 T10391109  RH  058%=      5-min Rain = 0
KHA2 111553Z 34015KT M04/M11 A3018 RMK A01 T10391108  RH  058%=      5-min Rain = 0
KHA2 111554Z 34013KT M04/M11 A3018 RMK A01 T10391109  RH  058%=      5-min Rain = 0
KHA2 111555Z 34014KT M04/M11 A3018 RMK A01 T10381108  RH  058%=      5-min Rain = 0
KHA2 111556Z 34013KT M04/M11 A3018 RMK A01 T10371108  RH  058%=      5-min Rain = 0
KHA2 111557Z 33015KT M04/M11 A3018 RMK A01 T10351106  RH  058%=      5-min Rain = 0
KHA2 111558Z 33016KT M03/M11 A3018 RMK A01 T10341106  RH  057%=      5-min Rain = 0
KHA2 111559Z 35013KT M03/M11 A3018 RMK A01 T10341108  RH  057%=      5-min Rain = 0
KHA2 111600Z 35013KT M03/M11 A3018 RMK A01 T10331107  RH  057%=      5-min Rain = 0
KHA2 111601Z 34014KT M03/M11 A3018 RMK A01 T10311105  RH  056%=      5-min Rain = 0
KHA2 111602Z 35017KT M03/M11 A3018 RMK A01 T10301106  RH  056%=      5-min Rain = 0
KHA2 111603Z 35014KT M03/M11 A3018 RMK A01 T10311108  RH  055%=      5-min Rain = 0
KHA2 111604Z 35014KT M03/M11 A3018 RMK A01 T10311108  RH  055%=      5-min Rain = 0
KHA2 111605Z 34016KT M03/M11 A3018 RMK A01 T10311107  RH  055%=      5-min Rain = 0
KHA2 111606Z 34018KT M03/M11 A3018 RMK A01 T10311108  RH  055%=      5-min Rain = 0
KHA2 111607Z 34017KT M03/M11 A3018 RMK A01 T10311108  RH  055%=      5-min Rain = 0
KHA2 111608Z 35017KT M03/M11 A3018 RMK A01 T10301107  RH  055%=      5-min Rain = 0
KHA2 111609Z 35016KT M03/M11 A3018 RMK A01 T10301107  RH  055%=      5-min Rain = 0
KHA2 111610Z 36015KT M03/M11 A3018 RMK A01 T10281106  RH  055%=      5-min Rain = 0
KHA2 111611Z 35016KT M03/M11 A3018 RMK A01 T10271105  RH  055%=      5-min Rain = 0
KHA2 111612Z 35015KT M03/M10 A3018 RMK A01 T10251104  RH  055%=      5-min Rain = 0
KHA2 111613Z 33017KT M02/M10 A3018 RMK A01 T10231104  RH  054%=      5-min Rain = 0
KHA2 111614Z 34017KT M02/M11 A3018 RMK A01 T10241106  RH  054%=      5-min Rain = 0
KHA2 111615Z 35018KT M02/M11 A3018 RMK A01 T10231105  RH  053%=      5-min Rain = 0
KHA2 111616Z 35016KT M02/M11 A3018 RMK A01 T10231106  RH  053%=      5-min Rain = 0
KHA2 111617Z 35018KT M02/M11 A3018 RMK A01 T10211105  RH  052%=      5-min Rain = 0
KHA2 111618Z 35016KT M02/M11 A3018 RMK A01 T10221108  RH  052%=      5-min Rain = 0
KHA2 111619Z 35016KT M02/M11 A3019 RMK A01 T10231107  RH  053%=      5-min Rain = 0
KHA2 111620Z 33017KT M02/M11 A3019 RMK A01 T10221106  RH  053%=      5-min Rain = 0
KHA2 111621Z 35016KT M02/M11 A3019 RMK A01 T10231106  RH  053%=      5-min Rain = 0
KHA2 111622Z 34018KT M02/M11 A3019 RMK A01 T10231106  RH  053%=      5-min Rain = 0
KHA2 111623Z 34017KT M02/M11 A3019 RMK A01 T10241108  RH  052%=      5-min Rain = 0
KHA2 111624Z 34015KT M02/M11 A3019 RMK A01 T10231107  RH  053%=      5-min Rain = 0
KHA2 111625Z 35017KT M02/M11 A3019 RMK A01 T10221105  RH  053%=      5-min Rain = 0
KHA2 111626Z 35017KT M02/M11 A3019 RMK A01 T10211106  RH  052%=      5-min Rain = 0
KHA2 111627Z 34015KT M02/M11 A3019 RMK A01 T10201105  RH  052%=      5-min Rain = 0
KHA2 111628Z 34017KT M02/M10 A3018 RMK A01 T10181104  RH  052%=      5-min Rain = 0
KHA2 111629Z 34016KT M02/M11 A3018 RMK A01 T10191106  RH  051%=      5-min Rain = 0
KHA2 111630Z 36017KT M02/M11 A3018 RMK A01 T10201107  RH  052%=      5-min Rain = 0
KHA2 111631Z 36016KT M02/M11 A3018 RMK A01 T10191106  RH  051%=      5-min Rain = 0
KHA2 111632Z 35016KT M02/M11 A3018 RMK A01 T10181105  RH  052%=      5-min Rain = 0
KHA2 111633Z 36017KT M02/M11 A3018 RMK A01 T10171105  RH  051%=      5-min Rain = 0
KHA2 111634Z 36015KT M02/M11 A3018 RMK A01 T10201108  RH  051%=      5-min Rain = 0
KHA2 111635Z 36015KT M02/M11 A3019 RMK A01 T10201108  RH  051%=      5-min Rain = 0
KHA2 111636Z 35014KT M02/M11 A3019 RMK A01 T10191107  RH  051%=      5-min Rain = 0
KHA2 111637Z 35014KT M01/M10 A3019 RMK A01 T10141102  RH  051%=      5-min Rain = 0
KHA2 111638Z 34014KT M01/M10 A3019 RMK A01 T10131103  RH  051%=      5-min Rain = 0
KHA2 111639Z 35012KT M01/M10 A3019 RMK A01 T10131104  RH  050%=      5-min Rain = 0
KHA2 111640Z 35015KT M02/M11 A3019 RMK A01 T10151105  RH  050%=      5-min Rain = 0
KHA2 111641Z 35015KT M01/M11 A3019 RMK A01 T10141105  RH  050%=      5-min Rain = 0
KHA2 111642Z 34017KT M01/M11 A3019 RMK A01 T10141105  RH  050%=      5-min Rain = 0
KHA2 111643Z 35016KT M02/M11 A3019 RMK A01 T10151107  RH  050%=      5-min Rain = 0
KHA2 111644Z 34016KT M02/M11 A302 RMK A01 T10151107  RH  050%=      5-min Rain = 0
KHA2 111645Z 33015KT M01/M11 A302 RMK A01 T10141107  RH  049%=      5-min Rain = 0
KHA2 111646Z 35015G20KT M01/M11 A302 RMK A01 T10121105  RH  049%=      5-min Rain = 0
KHA2 111647Z 35015KT M01/M11 A302 RMK A01 T10111106  RH  049%=      5-min Rain = 0
KHA2 111648Z 00015KT M01/M11 A3019 RMK A01 T10131107  RH  049%=      5-min Rain = 0
KHA2 111649Z 00014KT M01/M11 A3019 RMK A01 T10131107  RH  049%=      5-min Rain = 0
KHA2 111650Z 36013KT M02/M11 A3019 RMK A01 T10151108  RH  049%=      5-min Rain = 0
KHA2 111651Z 36016KT M01/M11 A3019 RMK A01 T10131106  RH  049%=      5-min Rain = 0
KHA2 111652Z 00015KT M01/M11 A3019 RMK A01 T10121107  RH  048%=      5-min Rain = 0
KHA2 111653Z 36015KT M01/M11 A3019 RMK A01 T10141110  RH  048%=      5-min Rain = 0
KHA2 111654Z 36013KT M01/M11 A3019 RMK A01 T10131108  RH  048%=      5-min Rain = 0
KHA2 111655Z 36017KT M01/M11 A3019 RMK A01 T10111107  RH  048%=      5-min Rain = 0
KHA2 111656Z 00015KT M01/M11 A3019 RMK A01 T10131110  RH  048%=      5-min Rain = 0
KHA2 111657Z 00015KT M01/M11 A3019 RMK A01 T10131108  RH  048%=      5-min Rain = 0
KHA2 111658Z 36015KT M01/M11 A3019 RMK A01 T10101107  RH  048%=      5-min Rain = 0
KHA2 111659Z 36016KT M01/M11 A3019 RMK A01 T10101107  RH  048%=      5-min Rain = 0
KHA2 111700Z 36014KT M01/M11 A3019 RMK A01 T10081106  RH  047%=      5-min Rain = 0
KHA2 111701Z 35012KT M01/M11 A3019 RMK A01 T10061106  RH  047%=      5-min Rain = 0
KHA2 111702Z 35016KT M01/M11 A3019 RMK A01 T10071107  RH  047%=      5-min Rain = 0
KHA2 111703Z 35015KT M01/M11 A3019 RMK A01 T10071107  RH  047%=      5-min Rain = 0
KHA2 111704Z 35015KT M01/M11 A3019 RMK A01 T10071107  RH  047%=      5-min Rain = 0
KHA2 111705Z 35018KT M01/M11 A3019 RMK A01 T10071108  RH  046%=      5-min Rain = 0
KHA2 111706Z 36015KT M01/M11 A3019 RMK A01 T10081110  RH  046%=      5-min Rain = 0
KHA2 111707Z 36017KT M01/M11 A3019 RMK A01 T10061108  RH  046%=      5-min Rain = 0
KHA2 111708Z 00016KT M00/M11 A3019 RMK A01 T10041109  RH  045%=      5-min Rain = 0
KHA2 111709Z 34014KT 00/11 A3019 RMK A01 T00-00-106  RH  045%=      5-min Rain = 0
KHA2 111710Z 34015KT M00/M11 A3019 RMK A01 T10011108  RH  044%=      5-min Rain = 0
KHA2 111711Z 01014KT M00/M11 A3019 RMK A01 T10031110  RH  044%=      5-min Rain = 0
KHA2 111712Z 00016KT 00/M11 A3019 RMK A01 T00011108  RH  044%=      5-min Rain = 0
KHA2 111713Z 35016KT 00/M11 A3019 RMK A01 T00031108  RH  043%=      5-min Rain = 0
KHA2 111714Z 35015KT 00/M11 A3019 RMK A01 T00031109  RH  042%=      5-min Rain = 0
KHA2 111715Z 36015KT M00/M11 A3019 RMK A01 T10011113  RH  043%=      5-min Rain = 0
KHA2 111716Z 34014KT M00/M11 A3019 RMK A01 T10041114  RH  043%=      5-min Rain = 0
KHA2 111717Z 34014KT M01/M11 A3018 RMK A01 T10061113  RH  044%=      5-min Rain = 0
KHA2 111718Z 34013KT M01/M11 A3018 RMK A01 T10081112  RH  045%=      5-min Rain = 0
KHA2 111719Z 36013KT M01/M11 A3018 RMK A01 T10051110  RH  045%=      5-min Rain = 0
KHA2 111720Z 35014KT M01/M11 A3018 RMK A01 T10051114  RH  044%=      5-min Rain = 0
KHA2 111721Z 00017KT M01/M12 A3018 RMK A01 T10051115  RH  043%=      5-min Rain = 0
KHA2 111722Z 00016KT 00/11 A3018 RMK A01 T00000-112  RH  042%=      5-min Rain = 0
KHA2 111723Z 00016KT 00/M12 A3018 RMK A01 T00011115  RH  041%=      5-min Rain = 0
KHA2 111724Z 36014KT 00/11 A3018 RMK A01 T00000-114  RH  042%=      5-min Rain = 0
KHA2 111725Z 01014KT 00/M11 A3018 RMK A01 T00011114  RH  042%=      5-min Rain = 0
KHA2 111726Z 01013KT 00/M11 A3018 RMK A01 T00011114  RH  042%=      5-min Rain = 0
KHA2 111727Z 36014KT 00/M11 A3019 RMK A01 T00011113  RH  042%=      5-min Rain = 0
KHA2 111728Z 36014KT 00/M11 A3018 RMK A01 T00011113  RH  042%=      5-min Rain = 0
KHA2 111729Z 34016KT 00/M11 A3018 RMK A01 T00031112  RH  042%=      5-min Rain = 0
KHA2 111730Z 00014KT 00/M11 A3018 RMK A01 T00041112  RH  041%=      5-min Rain = 0
KHA2 111731Z 35014KT 01/M11 A3018 RMK A01 T00071111  RH  041%=      5-min Rain = 0
KHA2 111732Z 35016KT 01/M11 A3018 RMK A01 T00091112  RH  040%=      5-min Rain = 0
KHA2 111733Z 34018KT 01/M12 A3018 RMK A01 T00071115  RH  040%=      5-min Rain = 0
KHA2 111734Z 35016KT 01/M12 A3018 RMK A01 T00061116  RH  040%=      5-min Rain = 0
KHA2 111735Z 35015KT 00/M12 A3018 RMK A01 T00041117  RH  040%=      5-min Rain = 0
KHA2 111736Z 36014KT 01/M12 A3018 RMK A01 T00061118  RH  039%=      5-min Rain = 0
KHA2 111737Z 35014KT 01/M12 A3018 RMK A01 T00071119  RH  038%=      5-min Rain = 0
KHA2 111738Z 34019KT 01/M12 A3018 RMK A01 T00071119  RH  038%=      5-min Rain = 0
KHA2 111739Z 00016KT 01/M12 A3018 RMK A01 T00091116  RH  039%=      5-min Rain = 0
KHA2 111740Z 36015KT 01/M12 A3018 RMK A01 T00111117  RH  038%=      5-min Rain = 0
KHA2 111741Z 36015KT 01/M12 A3018 RMK A01 T00091121  RH  037%=      5-min Rain = 0
KHA2 111742Z 35014KT 01/M12 A3018 RMK A01 T00121119  RH  037%=      5-min Rain = 0
KHA2 111743Z 36014KT 01/M12 A3018 RMK A01 T00121120  RH  037%=      5-min Rain = 0
KHA2 111744Z 36016G21KT 01/M12 A3018 RMK A01 T00131119  RH  037%=      5-min Rain = 0
KHA2 111745Z 36013KT 01/M12 A3018 RMK A01 T00141121  RH  036%=      5-min Rain = 0
KHA2 111746Z 35016KT 01/M12 A3018 RMK A01 T00141123  RH  036%=      5-min Rain = 0
KHA2 111747Z 36013KT 01/M12 A3018 RMK A01 T00121123  RH  036%=      5-min Rain = 0
KHA2 111748Z 35016G21KT 01/M12 A3018 RMK A01 T00121121  RH  036%=      5-min Rain = 0
KHA2 111749Z 35017KT 01/M12 A3018 RMK A01 T00141121  RH  036%=      5-min Rain = 0
KHA2 111750Z 00015KT 02/M12 A3018 RMK A01 T00151121  RH  036%=      5-min Rain = 0
KHA2 111751Z 35015KT 02/M12 A3018 RMK A01 T00171119  RH  036%=      5-min Rain = 0
KHA2 111752Z 35017KT 02/M12 A3018 RMK A01 T00171122  RH  035%=      5-min Rain = 0
KHA2 111753Z 00015KT 01/M13 A3018 RMK A01 T00141126  RH  034%=      5-min Rain = 0
KHA2 111754Z 36017G22KT 01/M13 A3018 RMK A01 T00131126  RH  035%=      5-min Rain = 0
KHA2 111755Z 01017KT 01/M13 A3018 RMK A01 T00141127  RH  034%=      5-min Rain = 0
KHA2 111756Z 00015KT 01/M13 A3018 RMK A01 T00131133  RH  033%=      5-min Rain = 0
KHA2 111757Z 35014KT 01/M13 A3018 RMK A01 T00131131  RH  033%=      5-min Rain = 0
KHA2 111758Z 34014KT 01/M13 A3018 RMK A01 T00131127  RH  034%=      5-min Rain = 0
KHA2 111759Z 35013KT 01/M13 A3018 RMK A01 T00131125  RH  035%=      5-min Rain = 0
KHA2 111800Z 02013KT 01/M13 A3018 RMK A01 T00141127  RH  034%=      5-min Rain = 0
KHA2 111801Z 02011KT 02/M13 A3018 RMK A01 T00151134  RH  032%=      5-min Rain = 0
KHA2 111802Z 36012KT 01/M13 A3018 RMK A01 T00131133  RH  033%=      5-min Rain = 0
KHA2 111803Z 35010KT 02/M13 A3018 RMK A01 T00151127  RH  034%=      5-min Rain = 0
KHA2 111804Z 35009KT 02/M13 A3018 RMK A01 T00151125  RH  035%=      5-min Rain = 0
KHA2 111805Z 01011KT 02/M12 A3018 RMK A01 T00181123  RH  035%=      5-min Rain = 0
KHA2 111806Z 01014KT 02/M13 A3018 RMK A01 T00171128  RH  033%=      5-min Rain = 0
KHA2 111807Z 01012KT 02/M13 A3018 RMK A01 T00161129  RH  033%=      5-min Rain = 0
KHA2 111808Z 36011KT 02/M13 A3018 RMK A01 T00181125  RH  034%=      5-min Rain = 0
KHA2 111809Z 01011KT 02/M13 A3018 RMK A01 T00171129  RH  033%=      5-min Rain = 0
KHA2 111810Z 02010KT 02/M13 A3018 RMK A01 T00161128  RH  033%=      5-min Rain = 0
KHA2 111811Z 01011KT 02/M12 A3018 RMK A01 T00191124  RH  034%=      5-min Rain = 0
KHA2 111812Z 01011KT 02/M12 A3018 RMK A01 T00201124  RH  033%=      5-min Rain = 0
KHA2 111813Z 01014KT 02/M13 A3017 RMK A01 T00211126  RH  033%=      5-min Rain = 0
KHA2 111814Z 01012KT 02/M13 A3017 RMK A01 T00221129  RH  032%=      5-min Rain = 0
KHA2 111815Z 36012KT 02/M13 A3017 RMK A01 T00221130  RH  032%=      5-min Rain = 0
KHA2 111816Z 36011KT 02/M13 A3017 RMK A01 T00221130  RH  031%=      5-min Rain = 0
KHA2 111817Z 00013KT 02/M13 A3017 RMK A01 T00211130  RH  032%=      5-min Rain = 0
KHA2 111818Z 36011KT 02/M13 A3017 RMK A01 T00221129  RH  032%=      5-min Rain = 0
KHA2 111819Z 01010KT 02/M13 A3017 RMK A01 T00221129  RH  032%=      5-min Rain = 0
KHA2 111820Z 36011KT 02/M13 A3017 RMK A01 T00211129  RH  032%=      5-min Rain = 0
KHA2 111821Z 00010KT 02/M13 A3017 RMK A01 T00231127  RH  032%=      5-min Rain = 0
KHA2 111822Z 36011KT 02/M13 A3017 RMK A01 T00241128  RH  032%=      5-min Rain = 0
KHA2 111823Z 00009KT 02/M13 A3017 RMK A01 T00211131  RH  031%=      5-min Rain = 0
KHA2 111824Z 36010KT 02/M13 A3017 RMK A01 T00231127  RH  032%=      5-min Rain = 0
KHA2 111825Z 01009KT 03/M13 A3017 RMK A01 T00281126  RH  031%=      5-min Rain = 0
KHA2 111826Z 35009KT 03/M13 A3017 RMK A01 T00271129  RH  031%=      5-min Rain = 0
KHA2 111827Z 35010KT 03/M13 A3017 RMK A01 T00271129  RH  031%=      5-min Rain = 0
KHA2 111828Z 35013KT 03/M13 A3017 RMK A01 T00251130  RH  031%=      5-min Rain = 0
KHA2 111829Z 00012KT 03/M13 A3017 RMK A01 T00271130  RH  031%=      5-min Rain = 0
KHA2 111830Z 02010KT 02/M13 A3017 RMK A01 T00241133  RH  030%=      5-min Rain = 0
KHA2 111831Z 01009G14KT 02/M13 A3017 RMK A01 T00241133  RH  030%=      5-min Rain = 0
KHA2 111832Z 36011KT 03/M13 A3017 RMK A01 T00261129  RH  031%=      5-min Rain = 0
KHA2 111833Z 02012KT 03/M13 A3017 RMK A01 T00301130  RH  030%=      5-min Rain = 0
KHA2 111834Z 02014KT 03/M13 A3017 RMK A01 T00311130  RH  030%=      5-min Rain = 0
KHA2 111835Z 00010KT 03/M14 A3017 RMK A01 T00271135  RH  029%=      5-min Rain = 0
KHA2 111836Z 36012KT 03/M13 A3016 RMK A01 T00251134  RH  030%=      5-min Rain = 0
KHA2 111837Z 36012KT 03/M13 A3016 RMK A01 T00281131  RH  030%=      5-min Rain = 0
KHA2 111838Z 36008KT 03/M13 A3016 RMK A01 T00261133  RH  030%=      5-min Rain = 0
KHA2 111839Z 36012KT 03/M13 A3016 RMK A01 T00261131  RH  030%=      5-min Rain = 0
KHA2 111840Z 36011KT 03/M13 A3016 RMK A01 T00271132  RH  030%=      5-min Rain = 0
KHA2 111841Z 01009KT 03/M13 A3016 RMK A01 T00291129  RH  030%=      5-min Rain = 0
KHA2 111842Z 02009KT 03/M13 A3016 RMK A01 T00331125  RH  031%=      5-min Rain = 0
KHA2 111843Z 04011KT 04/M13 A3016 RMK A01 T00351126  RH  030%=      5-min Rain = 0
KHA2 111844Z 02009G14KT 03/M13 A3016 RMK A01 T00321131  RH  029%=      5-min Rain = 0
KHA2 111845Z 00014KT 03/M13 A3016 RMK A01 T00321130  RH  029%=      5-min Rain = 0
KHA2 111846Z 01014KT 04/M13 A3016 RMK A01 T00361128  RH  029%=      5-min Rain = 0
KHA2 111847Z 01012KT 04/M13 A3016 RMK A01 T00361133  RH  028%=      5-min Rain = 0
KHA2 111848Z 00009KT 03/M14 A3016 RMK A01 T00311136  RH  028%=      5-min Rain = 0
KHA2 111849Z 35007KT 03/M13 A3016 RMK A01 T00321132  RH  029%=      5-min Rain = 0
KHA2 111850Z 34006KT 03/M14 A3016 RMK A01 T00291135  RH  029%=      5-min Rain = 0
KHA2 111851Z 35009KT 03/M13 A3016 RMK A01 T00291130  RH  030%=      5-min Rain = 0
KHA2 111852Z 00012KT 04/M13 A3016 RMK A01 T00351128  RH  029%=      5-min Rain = 0
KHA2 111853Z 00010KT 04/M13 A3016 RMK A01 T00361132  RH  028%=      5-min Rain = 0
KHA2 111854Z 01008KT 04/M14 A3016 RMK A01 T00351135  RH  028%=      5-min Rain = 0
KHA2 111855Z 01010KT 03/M14 A3016 RMK A01 T00341135  RH  028%=      5-min Rain = 0
KHA2 111856Z 02011KT 04/M13 A3016 RMK A01 T00371133  RH  028%=      5-min Rain = 0
KHA2 111857Z 00010KT 04/M14 A3016 RMK A01 T00351137  RH  027%=      5-min Rain = 0
KHA2 111858Z 35007KT 03/M14 A3016 RMK A01 T00341138  RH  027%=      5-min Rain = 0
KHA2 111859Z 00008KT 04/M14 A3015 RMK A01 T00361137  RH  027%=      5-min Rain = 0
KHA2 111900Z 02011KT 04/M14 A3015 RMK A01 T00361135  RH  027%=      5-min Rain = 0
KHA2 111901Z 00009KT 04/M13 A3015 RMK A01 T00371133  RH  028%=      5-min Rain = 0
KHA2 111902Z 00008KT 04/M13 A3015 RMK A01 T00391131  RH  028%=      5-min Rain = 0
KHA2 111903Z 01007KT 04/M13 A3015 RMK A01 T00381133  RH  027%=      5-min Rain = 0
KHA2 111904Z 03007KT 04/M13 A3015 RMK A01 T00371134  RH  028%=      5-min Rain = 0
KHA2 111905Z 04008KT 04/M13 A3015 RMK A01 T00371133  RH  028%=      5-min Rain = 0
KHA2 111906Z 01009KT 04/M13 A3015 RMK A01 T00351134  RH  028%=      5-min Rain = 0
KHA2 111907Z 34009KT 04/M13 A3015 RMK A01 T00361131  RH  028%=      5-min Rain = 0
KHA2 111908Z 32008KT 04/M13 A3015 RMK A01 T00371129  RH  029%=      5-min Rain = 0
KHA2 111909Z 33009KT 04/M13 A3015 RMK A01 T00371128  RH  029%=      5-min Rain = 0
KHA2 111910Z 34007KT 04/M13 A3015 RMK A01 T00391127  RH  029%=      5-min Rain = 0
KHA2 111911Z 01009KT 04/M13 A3015 RMK A01 T00411128  RH  028%=      5-min Rain = 0
KHA2 111912Z 02011KT 04/M13 A3014 RMK A01 T00421130  RH  027%=      5-min Rain = 0
KHA2 111913Z 03009KT 04/M13 A3014 RMK A01 T00411133  RH  027%=      5-min Rain = 0
KHA2 111914Z 03008KT 04/M13 A3014 RMK A01 T00411133  RH  027%=      5-min Rain = 0
KHA2 111915Z 03007KT 04/M13 A3014 RMK A01 T00401133  RH  027%=      5-min Rain = 0
KHA2 111916Z 34009KT 04/M13 A3014 RMK A01 T00401132  RH  027%=      5-min Rain = 0
KHA2 111917Z 01011KT 04/M13 A3014 RMK A01 T00401134  RH  027%=      5-min Rain = 0
KHA2 111918Z 01010KT 04/M13 A3014 RMK A01 T00411134  RH  027%=      5-min Rain = 0
KHA2 111919Z 35008KT 04/M13 A3014 RMK A01 T00421134  RH  026%=      5-min Rain = 0
KHA2 111920Z 35006KT 04/M14 A3014 RMK A01 T00401136  RH  026%=      5-min Rain = 0
KHA2 111921Z 00009KT 04/M14 A3014 RMK A01 T00401135  RH  027%=      5-min Rain = 0
KHA2 111922Z 01011KT 04/M13 A3014 RMK A01 T00431133  RH  026%=      5-min Rain = 0
KHA2 111923Z 02008KT 04/M14 A3014 RMK A01 T00441135  RH  026%=      5-min Rain = 0
KHA2 111924Z 01008KT 04/M14 A3014 RMK A01 T00411137  RH  026%=      5-min Rain = 0
KHA2 111925Z 34008KT 04/M13 A3014 RMK A01 T00411134  RH  027%=      5-min Rain = 0
KHA2 111926Z 35007KT 04/M13 A3014 RMK A01 T00411133  RH  027%=      5-min Rain = 0
KHA2 111927Z 35007KT 04/M13 A3014 RMK A01 T00411132  RH  027%=      5-min Rain = 0
KHA2 111928Z 35008KT 04/M13 A3013 RMK A01 T00441130  RH  027%=      5-min Rain = 0
KHA2 111929Z 35006KT 04/M13 A3013 RMK A01 T00441132  RH  027%=      5-min Rain = 0
KHA2 111930Z 01007KT 04/M13 A3013 RMK A01 T00421133  RH  027%=      5-min Rain = 0
KHA2 111931Z 01011KT 04/M14 A3013 RMK A01 T00411135  RH  026%=      5-min Rain = 0
KHA2 111932Z 00010KT 04/M13 A3013 RMK A01 T00431133  RH  026%=      5-min Rain = 0
KHA2 111933Z 00008KT 05/M13 A3013 RMK A01 T00471133  RH  026%=      5-min Rain = 0
KHA2 111934Z 35007KT 04/M14 A3013 RMK A01 T00441138  RH  025%=      5-min Rain = 0
KHA2 111935Z 00005KT 04/M14 A3013 RMK A01 T00431137  RH  026%=      5-min Rain = 0
KHA2 111936Z 34004KT 04/M14 A3013 RMK A01 T00411138  RH  026%=      5-min Rain = 0
KHA2 111937Z 01003KT 04/M14 A3013 RMK A01 T00391138  RH  026%=      5-min Rain = 0
KHA2 111938Z 01007KT 04/M14 A3013 RMK A01 T00391136  RH  027%=      5-min Rain = 0
KHA2 111939Z 00010KT 04/M14 A3013 RMK A01 T00431136  RH  026%=      5-min Rain = 0
KHA2 111940Z 36008KT 05/M14 A3013 RMK A01 T00451137  RH  025%=      5-min Rain = 0
KHA2 111941Z 36006KT 04/M14 A3013 RMK A01 T00441139  RH  025%=      5-min Rain = 0
KHA2 111942Z 02006KT 04/M14 A3013 RMK A01 T00441139  RH  025%=      5-min Rain = 0
KHA2 111943Z 02004KT 04/M14 A3013 RMK A01 T00441139  RH  025%=      5-min Rain = 0
KHA2 111944Z 02003KT 04/M14 A3012 RMK A01 T00431140  RH  025%=      5-min Rain = 0
KHA2 111945Z 03007KT 04/M14 A3012 RMK A01 T00421139  RH  025%=      5-min Rain = 0
KHA2 111946Z 04007KT 05/M14 A3012 RMK A01 T00451137  RH  025%=      5-min Rain = 0
KHA2 111947Z 03009KT 05/M14 A3012 RMK A01 T00471137  RH  025%=      5-min Rain = 0
KHA2 111948Z 02007KT 05/M14 A3012 RMK A01 T00461140  RH  025%=      5-min Rain = 0
KHA2 111949Z 03007KT 05/M14 A3012 RMK A01 T00471139  RH  025%=      5-min Rain = 0
KHA2 111950Z 04006KT 05/M14 A3012 RMK A01 T00461140  RH  025%=      5-min Rain = 0
KHA2 111951Z 06005KT 05/M14 A3012 RMK A01 T00451141  RH  025%=      5-min Rain = 0
KHA2 111952Z 02006KT 04/M14 A3012 RMK A01 T00441140  RH  025%=      5-min Rain = 0
KHA2 111953Z 03004KT 04/M14 A3012 RMK A01 T00431140  RH  025%=      5-min Rain = 0
KHA2 111954Z 02006G11KT 04/M14 A3012 RMK A01 T00441139  RH  025%=      5-min Rain = 0
KHA2 111955Z 01008KT 05/M14 A3012 RMK A01 T00461137  RH  025%=      5-min Rain = 0
KHA2 111956Z 02006KT 05/M14 A3012 RMK A01 T00481138  RH  025%=      5-min Rain = 0
KHA2 111957Z 03007KT 05/M14 A3012 RMK A01 T00481137  RH  025%=      5-min Rain = 0
KHA2 111958Z 36008KT 05/M14 A3011 RMK A01 T00501136  RH  025%=      5-min Rain = 0
KHA2 111959Z 35006KT 05/M14 A3011 RMK A01 T00531135  RH  024%=      5-min Rain = 0
KHA2 112000Z 00004KT 05/M14 A3011 RMK A01 T00511140  RH  024%=      5-min Rain = 0
KHA2 112001Z 35005KT 05/M14 A3011 RMK A01 T00491138  RH  024%=      5-min Rain = 0
KHA2 112002Z 34005KT 05/M13 A3011 RMK A01 T00501134  RH  025%=      5-min Rain = 0
KHA2 112003Z 35005KT 05/M14 A3011 RMK A01 T00501136  RH  025%=      5-min Rain = 0
KHA2 112004Z 02007KT 05/M14 A3011 RMK A01 T00491138  RH  024%=      5-min Rain = 0
KHA2 112005Z 03009KT 05/M14 A3011 RMK A01 T00531136  RH  024%=      5-min Rain = 0
KHA2 112006Z 02008KT 05/M14 A3011 RMK A01 T00531137  RH  024%=      5-min Rain = 0
KHA2 112007Z 02006KT 05/M14 A3011 RMK A01 T00521139  RH  024%=      5-min Rain = 0
KHA2 112008Z 00004KT 05/M14 A3011 RMK A01 T00511139  RH  024%=      5-min Rain = 0
KHA2 112009Z 01003KT 05/M14 A3011 RMK A01 T00511138  RH  024%=      5-min Rain = 0
KHA2 112010Z 36005KT 05/M14 A3011 RMK A01 T00521135  RH  024%=      5-min Rain = 0
KHA2 112011Z 02003KT 05/M14 A3011 RMK A01 T00531135  RH  024%=      5-min Rain = 0
KHA2 112012Z 35006KT 05/M14 A3011 RMK A01 T00531136  RH  024%=      5-min Rain = 0
KHA2 112013Z 01008KT 06/M13 A3011 RMK A01 T00551133  RH  024%=      5-min Rain = 0
KHA2 112014Z 01008KT 06/M14 A3011 RMK A01 T00601135  RH  023%=      5-min Rain = 0
KHA2 112015Z 02007KT 06/M14 A3011 RMK A01 T00581140  RH  022%=      5-min Rain = 0
KHA2 112016Z 03006KT 05/M14 A3011 RMK A01 T00541142  RH  023%=      5-min Rain = 0
KHA2 112017Z 03006KT 06/M14 A3011 RMK A01 T00561139  RH  023%=      5-min Rain = 0
KHA2 112018Z 02009KT 06/M14 A3011 RMK A01 T00571138  RH  023%=      5-min Rain = 0
KHA2 112019Z 02005KT 06/M14 A3011 RMK A01 T00551139  RH  023%=      5-min Rain = 0
KHA2 112020Z 01004KT 05/M14 A3011 RMK A01 T00531140  RH  023%=      5-min Rain = 0
KHA2 112021Z 36005KT 05/M14 A3011 RMK A01 T00521141  RH  023%=      5-min Rain = 0
KHA2 112022Z 34003KT 05/M14 A3011 RMK A01 T00511140  RH  024%=      5-min Rain = 0
KHA2 112023Z 34004KT 05/M14 A3011 RMK A01 T00531137  RH  024%=      5-min Rain = 0
KHA2 112024Z 03006KT 06/M14 A3011 RMK A01 T00551137  RH  024%=      5-min Rain = 0
KHA2 112025Z 05005KT 06/M14 A3011 RMK A01 T00561136  RH  023%=      5-min Rain = 0
KHA2 112026Z 03006KT 06/M14 A3011 RMK A01 T00561138  RH  023%=      5-min Rain = 0
KHA2 112027Z 00007KT 06/M14 A3011 RMK A01 T00561141  RH  023%=      5-min Rain = 0
KHA2 112028Z 35006KT 06/M14 A3011 RMK A01 T00581142  RH  022%=      5-min Rain = 0
KHA2 112029Z 36004KT 06/M14 A3011 RMK A01 T00571144  RH  022%=      5-min Rain = 0
KHA2 112030Z 34004KT 06/M15 A3011 RMK A01 T00581145  RH  022%=      5-min Rain = 0
KHA2 112031Z 01005KT 06/M14 A3011 RMK A01 T00571143  RH  022%=      5-min Rain = 0
KHA2 112032Z 01006KT 06/M14 A3011 RMK A01 T00571140  RH  023%=      5-min Rain = 0
KHA2 112033Z 00006KT 06/M14 A3011 RMK A01 T00561140  RH  023%=      5-min Rain = 0
KHA2 112034Z 34007KT 06/M14 A3011 RMK A01 T00551139  RH  023%=      5-min Rain = 0
KHA2 112035Z 36004KT 06/M14 A3011 RMK A01 T00581136  RH  023%=      5-min Rain = 0
KHA2 112036Z 01003KT 06/M14 A3011 RMK A01 T00601138  RH  023%=      5-min Rain = 0
KHA2 112037Z 34006KT 06/M14 A3011 RMK A01 T00611138  RH  022%=      5-min Rain = 0
KHA2 112038Z 35006KT 06/M14 A3011 RMK A01 T00631136  RH  023%=      5-min Rain = 0
KHA2 112039Z 35004KT 06/M14 A3011 RMK A01 T00641136  RH  022%=      5-min Rain = 0
KHA2 112040Z 35004KT 07/M14 A3011 RMK A01 T00651136  RH  022%=      5-min Rain = 0
KHA2 112041Z 01003KT 07/M14 A3011 RMK A01 T00651139  RH  022%=      5-min Rain = 0
KHA2 112042Z 31002KT 06/M14 A3011 RMK A01 T00641138  RH  022%=      5-min Rain = 0
KHA2 112043Z 04003KT 06/M14 A3011 RMK A01 T00641138  RH  022%=      5-min Rain = 0
KHA2 112044Z 06005KT 06/M14 A3011 RMK A01 T00641139  RH  022%=      5-min Rain = 0
KHA2 112045Z 07005KT 06/M14 A3011 RMK A01 T00621142  RH  022%=      5-min Rain = 0
KHA2 112046Z 03005KT 06/M14 A3011 RMK A01 T00611142  RH  022%=      5-min Rain = 0
KHA2 112047Z 01008KT 06/M14 A3011 RMK A01 T00631140  RH  022%=      5-min Rain = 0
KHA2 112048Z 02007KT 06/M14 A3011 RMK A01 T00611143  RH  022%=      5-min Rain = 0
KHA2 112049Z 03007KT 06/M14 A3011 RMK A01 T00611141  RH  022%=      5-min Rain = 0
KHA2 112050Z 02007KT 06/M14 A3011 RMK A01 T00621140  RH  022%=      5-min Rain = 0
KHA2 112051Z 03004KT 06/M14 A3011 RMK A01 T00611140  RH  022%=      5-min Rain = 0
KHA2 112052Z 04004KT 06/M14 A3011 RMK A01 T00601139  RH  022%=      5-min Rain = 0
KHA2 112053Z 02003KT 06/M14 A3011 RMK A01 T00601141  RH  022%=      5-min Rain = 0
KHA2 112054Z 05003KT 06/M14 A3011 RMK A01 T00591141  RH  022%=      5-min Rain = 0
KHA2 112055Z 04006KT 06/M14 A3011 RMK A01 T00581141  RH  022%=      5-min Rain = 0
KHA2 112056Z 03008KT 06/M14 A3011 RMK A01 T00611141  RH  022%=      5-min Rain = 0
KHA2 112057Z 00007KT 06/M14 A3011 RMK A01 T00621141  RH  022%=      5-min Rain = 0
KHA2 112058Z 01007KT 06/M14 A3011 RMK A01 T00621140  RH  022%=      5-min Rain = 0
KHA2 112059Z 02008KT 06/M14 A3011 RMK A01 T00641140  RH  022%=      5-min Rain = 0
KHA2 112100Z 03008KT 07/M14 A3011 RMK A01 T00651143  RH  021%=      5-min Rain = 0
KHA2 112101Z 04008KT 07/M15 A3011 RMK A01 T00651146  RH  021%=      5-min Rain = 0
KHA2 112102Z 03009KT 06/M15 A3011 RMK A01 T00631150  RH  020%=      5-min Rain = 0
KHA2 112103Z 05008KT 06/M15 A3011 RMK A01 T00591150  RH  020%=      5-min Rain = 0
KHA2 112104Z 03005KT 06/M15 A3011 RMK A01 T00591148  RH  021%=      5-min Rain = 0
KHA2 112105Z 02009KT 06/M14 A3011 RMK A01 T00601144  RH  022%=      5-min Rain = 0
KHA2 112106Z 03007KT 06/M14 A3012 RMK A01 T00621142  RH  022%=      5-min Rain = 0
KHA2 112107Z 06006KT 06/M14 A3011 RMK A01 T00611143  RH  021%=      5-min Rain = 0
KHA2 112108Z 04006KT 06/M14 A3011 RMK A01 T00621144  RH  021%=      5-min Rain = 0
KHA2 112109Z 04006KT 06/M14 A3011 RMK A01 T00631142  RH  021%=      5-min Rain = 0
KHA2 112110Z 04007KT 06/M14 A3011 RMK A01 T00641142  RH  021%=      5-min Rain = 0
KHA2 112111Z 05008KT 06/M14 A3011 RMK A01 T00641141  RH  021%=      5-min Rain = 0
KHA2 112112Z 04007KT 06/M14 A3011 RMK A01 T00631144  RH  021%=      5-min Rain = 0
KHA2 112113Z 06006KT 06/M14 A3011 RMK A01 T00621144  RH  021%=      5-min Rain = 0
KHA2 112114Z 04006KT 06/M14 A3011 RMK A01 T00631144  RH  021%=      5-min Rain = 0
KHA2 112115Z 02010KT 06/M14 A3011 RMK A01 T00631142  RH  021%=      5-min Rain = 0
KHA2 112116Z 03009KT 06/M14 A3011 RMK A01 T00631142  RH  021%=      5-min Rain = 0
KHA2 112117Z 04006KT 06/M14 A3011 RMK A01 T00611144  RH  021%=      5-min Rain = 0
KHA2 112118Z 03006KT 06/M14 A3011 RMK A01 T00601144  RH  022%=      5-min Rain = 0
KHA2 112119Z 01006KT 06/M14 A3011 RMK A01 T00601143  RH  022%=      5-min Rain = 0
KHA2 112120Z 02006KT 06/M14 A3011 RMK A01 T00611143  RH  021%=      5-min Rain = 0
KHA2 112121Z 01007KT 06/M14 A3011 RMK A01 T00631142  RH  021%=      5-min Rain = 0
KHA2 112122Z 01008KT 07/M14 A3011 RMK A01 T00651143  RH  021%=      5-min Rain = 0
KHA2 112123Z 02008KT 07/M14 A3011 RMK A01 T00661141  RH  021%=      5-min Rain = 0
KHA2 112124Z 03008KT 07/M14 A3011 RMK A01 T00681140  RH  021%=      5-min Rain = 0
KHA2 112125Z 04008KT 07/M14 A3011 RMK A01 T00681141  RH  021%=      5-min Rain = 0
KHA2 112126Z 03008KT 07/M14 A3011 RMK A01 T00671142  RH  021%=      5-min Rain = 0
KHA2 112127Z 04007KT 07/M14 A3011 RMK A01 T00661142  RH  021%=      5-min Rain = 0
KHA2 112128Z 05007KT 07/M14 A3011 RMK A01 T00661144  RH  021%=      5-min Rain = 0
KHA2 112129Z 04007KT 07/M14 A3011 RMK A01 T00651144  RH  021%=      5-min Rain = 0
KHA2 112130Z 04007KT 06/M14 A3011 RMK A01 T00641144  RH  021%=      5-min Rain = 0
KHA2 112131Z 03007KT 06/M14 A3011 RMK A01 T00641142  RH  021%=      5-min Rain = 0
KHA2 112132Z 05006KT 06/M14 A3011 RMK A01 T00631141  RH  022%=      5-min Rain = 0
KHA2 112133Z 05008KT 06/M14 A3011 RMK A01 T00641141  RH  022%=      5-min Rain = 0
KHA2 112134Z 05007KT 06/M14 A3011 RMK A01 T00641142  RH  021%=      5-min Rain = 0
KHA2 112135Z 02005KT 06/M14 A3011 RMK A01 T00621143  RH  021%=      5-min Rain = 0
KHA2 112136Z 00002KT 06/M14 A3011 RMK A01 T00611143  RH  022%=      5-min Rain = 0
KHA2 112137Z 29002KT 06/M14 A3011 RMK A01 T00611142  RH  022%=      5-min Rain = 0
KHA2 112138Z 24001KT 06/M14 A3011 RMK A01 T00611142  RH  022%=      5-min Rain = 0
KHA2 112139Z 32001KT 06/M14 A3011 RMK A01 T00631139  RH  022%=      5-min Rain = 0
KHA2 112140Z 33001KT 07/M14 A3011 RMK A01 T00651138  RH  022%=      5-min Rain = 0
KHA2 112141Z 32003KT 07/M14 A3011 RMK A01 T00671139  RH  021%=      5-min Rain = 0
KHA2 112142Z 00006KT 07/M14 A3011 RMK A01 T00671139  RH  021%=      5-min Rain = 0
KHA2 112143Z 03007KT 07/M14 A3011 RMK A01 T00691138  RH  021%=      5-min Rain = 0
KHA2 112144Z 04007KT 07/M14 A3011 RMK A01 T00701138  RH  021%=      5-min Rain = 0
KHA2 112145Z 03009KT 07/M14 A3011 RMK A01 T00691139  RH  021%=      5-min Rain = 0
KHA2 112146Z 04007KT 07/M14 A3011 RMK A01 T00681139  RH  021%=      5-min Rain = 0
KHA2 112147Z 03005KT 07/M14 A3011 RMK A01 T00681139  RH  021%=      5-min Rain = 0
KHA2 112148Z 02006KT 07/M14 A3011 RMK A01 T00681139  RH  021%=      5-min Rain = 0
KHA2 112149Z 03007KT 07/M14 A3011 RMK A01 T00681138  RH  021%=      5-min Rain = 0
KHA2 112150Z 36008KT 07/M14 A3011 RMK A01 T00691138  RH  021%=      5-min Rain = 0
KHA2 112151Z 35004KT 07/M14 A3011 RMK A01 T00731136  RH  021%=      5-min Rain = 0
KHA2 112152Z 04003KT 07/M14 A3011 RMK A01 T00721141  RH  020%=      5-min Rain = 0
KHA2 112153Z 01005G10KT 07/M14 A3011 RMK A01 T00711140  RH  021%=      5-min Rain = 0
KHA2 112154Z 00008KT 07/M14 A3011 RMK A01 T00711139  RH  021%=      5-min Rain = 0
KHA2 112155Z 36008KT 07/M14 A3011 RMK A01 T00711140  RH  021%=      5-min Rain = 0
KHA2 112156Z 01010KT 07/M14 A3011 RMK A01 T00711139  RH  021%=      5-min Rain = 0
KHA2 112157Z 01008KT 07/M14 A3011 RMK A01 T00701141  RH  021%=      5-min Rain = 0
KHA2 112158Z 02005KT 07/M14 A3011 RMK A01 T00671143  RH  021%=      5-min Rain = 0
KHA2 112159Z 03006KT 07/M14 A3011 RMK A01 T00681140  RH  021%=      5-min Rain = 0
KHA2 112200Z 05006KT 07/M14 A3011 RMK A01 T00671140  RH  021%=      5-min Rain = 0
KHA2 112201Z 04006KT 07/M14 A3011 RMK A01 T00681140  RH  021%=      5-min Rain = 0
KHA2 112202Z 01009KT 07/M14 A3011 RMK A01 T00681140  RH  021%=      5-min Rain = 0
KHA2 112203Z 01009KT 07/M14 A3011 RMK A01 T00691142  RH  020%=      5-min Rain = 0
KHA2 112204Z 02008KT 07/M14 A3011 RMK A01 T00681144  RH  020%=      5-min Rain = 0
KHA2 112205Z 01008KT 07/M14 A3011 RMK A01 T00681141  RH  021%=      5-min Rain = 0
KHA2 112206Z 00006KT 07/M14 A3011 RMK A01 T00691141  RH  021%=      5-min Rain = 0
KHA2 112207Z 01005KT 07/M14 A3011 RMK A01 T00671142  RH  021%=      5-min Rain = 0
KHA2 112208Z 01002KT 07/M14 A3011 RMK A01 T00661143  RH  021%=      5-min Rain = 0
KHA2 112209Z 01005KT 07/M14 A3011 RMK A01 T00651142  RH  021%=      5-min Rain = 0
KHA2 112210Z 01006KT 07/M14 A3011 RMK A01 T00671140  RH  021%=      5-min Rain = 0
KHA2 112211Z 03008KT 07/M14 A3011 RMK A01 T00701138  RH  021%=      5-min Rain = 0
KHA2 112212Z 01009KT 07/M14 A3011 RMK A01 T00671141  RH  021%=      5-min Rain = 0
KHA2 112213Z 00009KT 07/M14 A3011 RMK A01 T00681140  RH  021%=      5-min Rain = 0
KHA2 112214Z 36008KT 07/M14 A3011 RMK A01 T00711138  RH  021%=      5-min Rain = 0
KHA2 112215Z 35009KT 07/M14 A3012 RMK A01 T00711141  RH  020%=      5-min Rain = 0
KHA2 112216Z 36008KT 07/M14 A3012 RMK A01 T00681144  RH  020%=      5-min Rain = 0
KHA2 112217Z 35007KT 07/M14 A3012 RMK A01 T00661144  RH  021%=      5-min Rain = 0
KHA2 112218Z 35008KT 07/M14 A3012 RMK A01 T00661142  RH  021%=      5-min Rain = 0
KHA2 112219Z 35006KT 07/M14 A3012 RMK A01 T00681140  RH  021%=      5-min Rain = 0
KHA2 112220Z 03006KT 07/M14 A3012 RMK A01 T00681141  RH  021%=      5-min Rain = 0
KHA2 112221Z 00006KT 07/M14 A3012 RMK A01 T00661144  RH  021%=      5-min Rain = 0
KHA2 112222Z 35007KT 07/M14 A3012 RMK A01 T00661143  RH  021%=      5-min Rain = 0
KHA2 112223Z 00007KT 07/M14 A3012 RMK A01 T00661142  RH  021%=      5-min Rain = 0
KHA2 112224Z 00008KT 07/M14 A3012 RMK A01 T00671141  RH  021%=      5-min Rain = 0
KHA2 112225Z 00006KT 07/M14 A3012 RMK A01 T00671142  RH  021%=      5-min Rain = 0
KHA2 112226Z 01006KT 07/M14 A3012 RMK A01 T00661142  RH  021%=      5-min Rain = 0
KHA2 112227Z 02005KT 07/M14 A3012 RMK A01 T00661142  RH  021%=      5-min Rain = 0
KHA2 112228Z 01005KT 07/M14 A3012 RMK A01 T00651142  RH  021%=      5-min Rain = 0
KHA2 112229Z 01005KT 07/M14 A3012 RMK A01 T00651142  RH  021%=      5-min Rain = 0
KHA2 112230Z 02006KT 07/M14 A3012 RMK A01 T00661141  RH  021%=      5-min Rain = 0
KHA2 112231Z 03006KT 07/M14 A3012 RMK A01 T00671141  RH  021%=      5-min Rain = 0
KHA2 112232Z 04005KT 07/M14 A3012 RMK A01 T00651142  RH  021%=      5-min Rain = 0
KHA2 112233Z 03002KT 07/M14 A3012 RMK A01 T00651142  RH  021%=      5-min Rain = 0
KHA2 112234Z 01001KT 06/M14 A3012 RMK A01 T00641142  RH  021%=      5-min Rain = 0
KHA2 112235Z 36002KT 07/M14 A3012 RMK A01 T00661141  RH  021%=      5-min Rain = 0
KHA2 112236Z 36003KT 07/M14 A3012 RMK A01 T00661141  RH  021%=      5-min Rain = 0
KHA2 112237Z 01005KT 07/M14 A3012 RMK A01 T00661141  RH  021%=      5-min Rain = 0
KHA2 112238Z 36008KT 07/M14 A3012 RMK A01 T00681141  RH  021%=      5-min Rain = 0
KHA2 112239Z 00007KT 07/M14 A3012 RMK A01 T00691142  RH  021%=      5-min Rain = 0
KHA2 112240Z 35007KT 07/M14 A3012 RMK A01 T00681143  RH  020%=      5-min Rain = 0
KHA2 112241Z 35006KT 07/M14 A3012 RMK A01 T00671143  RH  021%=      5-min Rain = 0
KHA2 112242Z 00008KT 07/M14 A3012 RMK A01 T00671141  RH  021%=      5-min Rain = 0
KHA2 112243Z 36007KT 07/M14 A3012 RMK A01 T00691140  RH  021%=      5-min Rain = 0
KHA2 112244Z 00006KT 07/M14 A3012 RMK A01 T00681141  RH  021%=      5-min Rain = 0
KHA2 112245Z 01006KT 07/M14 A3012 RMK A01 T00671142  RH  021%=      5-min Rain = 0
KHA2 112246Z 02005KT 07/M14 A3012 RMK A01 T00661141  RH  021%=      5-min Rain = 0
KHA2 112247Z 01005KT 07/M14 A3013 RMK A01 T00671140  RH  021%=      5-min Rain = 0
KHA2 112248Z 00003KT 07/M14 A3013 RMK A01 T00661141  RH  021%=      5-min Rain = 0
KHA2 112249Z 34003KT 07/M14 A3013 RMK A01 T00661141  RH  021%=      5-min Rain = 0
KHA2 112250Z 01002KT 07/M14 A3013 RMK A01 T00661142  RH  021%=      5-min Rain = 0
KHA2 112251Z 34002KT 07/M14 A3013 RMK A01 T00661142  RH  021%=      5-min Rain = 0
KHA2 112252Z 35002KT 07/M14 A3013 RMK A01 T00661142  RH  021%=      5-min Rain = 0
KHA2 112253Z 03002KT 07/M14 A3013 RMK A01 T00671141  RH  021%=      5-min Rain = 0
KHA2 112254Z 00002KT 07/M14 A3013 RMK A01 T00671140  RH  021%=      5-min Rain = 0
KHA2 112255Z 35003KT 07/M14 A3012 RMK A01 T00681140  RH  021%=      5-min Rain = 0
KHA2 112256Z 34004KT 07/M14 A3012 RMK A01 T00681139  RH  021%=      5-min Rain = 0
KHA2 112257Z 32004KT 07/M14 A3012 RMK A01 T00681139  RH  021%=      5-min Rain = 0
KHA2 112258Z 35006KT 07/M14 A3012 RMK A01 T00691139  RH  021%=      5-min Rain = 0
KHA2 112259Z 01005KT 07/M14 A3012 RMK A01 T00701138  RH  021%=      5-min Rain = 0
KHA2 112300Z 01003KT 07/M14 A3013 RMK A01 T00691140  RH  021%=      5-min Rain = 0
KHA2 112301Z 35006KT 07/M14 A3013 RMK A01 T00681140  RH  021%=      5-min Rain = 0
KHA2 112302Z 36006KT 07/M14 A3013 RMK A01 T00681139  RH  021%=      5-min Rain = 0
KHA2 112303Z 01006KT 07/M14 A3013 RMK A01 T00681139  RH  021%=      5-min Rain = 0
KHA2 112304Z 02008KT 07/M14 A3013 RMK A01 T00681138  RH  021%=      5-min Rain = 0
KHA2 112305Z 03007KT 07/M14 A3013 RMK A01 T00681138  RH  021%=      5-min Rain = 0
KHA2 112306Z 02007KT 07/M14 A3013 RMK A01 T00661139  RH  021%=      5-min Rain = 0
KHA2 112307Z 01006KT 07/M14 A3012 RMK A01 T00651138  RH  022%=      5-min Rain = 0
KHA2 112308Z 00005KT 07/M14 A3012 RMK A01 T00651139  RH  022%=      5-min Rain = 0
KHA2 112309Z 01004KT 07/M14 A3012 RMK A01 T00651140  RH  021%=      5-min Rain = 0
KHA2 112310Z 04006KT 07/M14 A3012 RMK A01 T00651138  RH  022%=      5-min Rain = 0
KHA2 112311Z 05005KT 07/M14 A3012 RMK A01 T00651137  RH  022%=      5-min Rain = 0
KHA2 112312Z 06003KT 07/M14 A3012 RMK A01 T00651139  RH  022%=      5-min Rain = 0
KHA2 112313Z 04004KT 07/M14 A3013 RMK A01 T00651140  RH  022%=      5-min Rain = 0
KHA2 112314Z 36006KT 07/M14 A3013 RMK A01 T00651139  RH  022%=      5-min Rain = 0
KHA2 112315Z 01006KT 07/M14 A3013 RMK A01 T00661139  RH  022%=      5-min Rain = 0
KHA2 112316Z 01006KT 07/M14 A3013 RMK A01 T00661139  RH  022%=      5-min Rain = 0
KHA2 112317Z 00005KT 07/M14 A3013 RMK A01 T00661139  RH  021%=      5-min Rain = 0
KHA2 112318Z 00006KT 07/M14 A3013 RMK A01 T00661139  RH  021%=      5-min Rain = 0
KHA2 112319Z 35004KT 07/M14 A3013 RMK A01 T00661140  RH  021%=      5-min Rain = 0
KHA2 112320Z 35004KT 07/M14 A3013 RMK A01 T00661139  RH  022%=      5-min Rain = 0
KHA2 112321Z 00006KT 07/M14 A3013 RMK A01 T00671139  RH  021%=      5-min Rain = 0
KHA2 112322Z 00004KT 07/M14 A3013 RMK A01 T00651140  RH  021%=      5-min Rain = 0
KHA2 112323Z 35003KT 07/M14 A3013 RMK A01 T00651140  RH  021%=      5-min Rain = 0
KHA2 112324Z 34004KT 07/M14 A3013 RMK A01 T00651139  RH  022%=      5-min Rain = 0
KHA2 112325Z 36005KT 07/M14 A3013 RMK A01 T00651140  RH  022%=      5-min Rain = 0
KHA2 112326Z 02005KT 07/M14 A3013 RMK A01 T00651140  RH  022%=      5-min Rain = 0
KHA2 112327Z 02005KT 06/M14 A3013 RMK A01 T00641139  RH  022%=      5-min Rain = 0
KHA2 112328Z 03004KT 06/M14 A3013 RMK A01 T00631138  RH  022%=      5-min Rain = 0
KHA2 112329Z 05004KT 06/M14 A3013 RMK A01 T00621138  RH  022%=      5-min Rain = 0
KHA2 112330Z 04004KT 06/M14 A3013 RMK A01 T00621138  RH  022%=      5-min Rain = 0
KHA2 112331Z 05003KT 06/M14 A3013 RMK A01 T00621139  RH  022%=      5-min Rain = 0
KHA2 112332Z 04002KT 06/M14 A3013 RMK A01 T00621139  RH  022%=      5-min Rain = 0
KHA2 112333Z 01002KT 06/M14 A3013 RMK A01 T00621141  RH  022%=      5-min Rain = 0
KHA2 112334Z 34004KT 06/M14 A3013 RMK A01 T00621141  RH  022%=      5-min Rain = 0
KHA2 112335Z 32005KT 06/M14 A3013 RMK A01 T00621140  RH  022%=      5-min Rain = 0
KHA2 112336Z 33005KT 06/M14 A3013 RMK A01 T00631140  RH  022%=      5-min Rain = 0
KHA2 112337Z 34004KT 06/M14 A3013 RMK A01 T00631140  RH  022%=      5-min Rain = 0
KHA2 112338Z 34004KT 06/M14 A3013 RMK A01 T00631141  RH  022%=      5-min Rain = 0
KHA2 112339Z 34002KT 06/M14 A3013 RMK A01 T00641140  RH  022%=      5-min Rain = 0
KHA2 112340Z 34002KT 06/M14 A3013 RMK A01 T00631141  RH  022%=      5-min Rain = 0
KHA2 112341Z 33002KT 06/M14 A3013 RMK A01 T00641140  RH  022%=      5-min Rain = 0
KHA2 112342Z 31003KT 06/M14 A3013 RMK A01 T00641140  RH  022%=      5-min Rain = 0
KHA2 112343Z 31002KT 07/M14 A3013 RMK A01 T00651140  RH  022%=      5-min Rain = 0
KHA2 112344Z 32003KT 07/M14 A3013 RMK A01 T00651140  RH  021%=      5-min Rain = 0
KHA2 112345Z 32003KT 07/M14 A3013 RMK A01 T00651140  RH  021%=      5-min Rain = 0
KHA2 112346Z 32002KT 06/M14 A3013 RMK A01 T00641141  RH  021%=      5-min Rain = 0
KHA2 112347Z 34002KT 06/M14 A3013 RMK A01 T00641140  RH  022%=      5-min Rain = 0
KHA2 112348Z 34002KT 06/M14 A3013 RMK A01 T00641141  RH  022%=      5-min Rain = 0
KHA2 112349Z 33004KT 06/M14 A3013 RMK A01 T00641140  RH  022%=      5-min Rain = 0
KHA2 112350Z 33003KT 06/M14 A3013 RMK A01 T00631141  RH  022%=      5-min Rain = 0
KHA2 112351Z 36002KT 06/M14 A3013 RMK A01 T00621141  RH  022%=      5-min Rain = 0
KHA2 112352Z 35003KT 06/M14 A3013 RMK A01 T00611141  RH  022%=      5-min Rain = 0
KHA2 112353Z 35003KT 06/M14 A3013 RMK A01 T00601141  RH  022%=      5-min Rain = 0
KHA2 112354Z 34002KT 06/M14 A3013 RMK A01 T00601141  RH  022%=      5-min Rain = 0
KHA2 112355Z 01002KT 06/M14 A3013 RMK A01 T00601141  RH  022%=      5-min Rain = 0
KHA2 112356Z 01003KT 06/M14 A3013 RMK A01 T00591141  RH  022%=      5-min Rain = 0
KHA2 112357Z 01003KT 06/M14 A3013 RMK A01 T00581141  RH  022%=      5-min Rain = 0
KHA2 112358Z 36003KT 06/M14 A3013 RMK A01 T00571142  RH  022%=      5-min Rain = 0
KHA2 112359Z 36003KT 06/M14 A3013 RMK A01 T00561141  RH  023%=      5-min Rain = 0
KHA2 120000Z 36003KT 06/M14 A3013 RMK A01 T00561141  RH  023%=      5-min Rain = 0
KHA2 120001Z 00003KT 06/M14 A3013 RMK A01 T00561140  RH  023%=      5-min Rain = 0
KHA2 120002Z 36003KT 06/M14 A3013 RMK A01 T00561141  RH  023%=      5-min Rain = 0
KHA2 120003Z 35003KT 06/M14 A3013 RMK A01 T00561141  RH  023%=      5-min Rain = 0
KHA2 120004Z 01003KT 06/M14 A3013 RMK A01 T00551142  RH  023%=      5-min Rain = 0
KHA2 120005Z 01003KT 06/M14 A3013 RMK A01 T00551141  RH  023%=      5-min Rain = 0
KHA2 120006Z 00003KT 06/M14 A3013 RMK A01 T00551141  RH  023%=      5-min Rain = 0
KHA2 120007Z 01003KT 06/M14 A3013 RMK A01 T00551142  RH  023%=      5-min Rain = 0
KHA2 120008Z 01003KT 05/M14 A3013 RMK A01 T00541144  RH  022%=      5-min Rain = 0
KHA2 120009Z 01003KT 05/M15 A3013 RMK A01 T00531145  RH  022%=      5-min Rain = 0
KHA2 120010Z 01003KT 05/M15 A3013 RMK A01 T00501146  RH  023%=      5-min Rain = 0
KHA2 120011Z 02003KT 05/M15 A3013 RMK A01 T00481146  RH  023%=      5-min Rain = 0
KHA2 120012Z 03003KT 05/M15 A3013 RMK A01 T00481147  RH  023%=      5-min Rain = 0
KHA2 120013Z 04003KT 05/M14 A3013 RMK A01 T00481143  RH  024%=      5-min Rain = 0
KHA2 120014Z 05004KT 05/M14 A3013 RMK A01 T00461137  RH  025%=      5-min Rain = 0
KHA2 120015Z 06005KT 05/M14 A3013 RMK A01 T00451139  RH  025%=      5-min Rain = 0
KHA2 120016Z 05005KT 05/M14 A3013 RMK A01 T00451143  RH  024%=      5-min Rain = 0
KHA2 120017Z 06004KT 04/M14 A3013 RMK A01 T00441144  RH  024%=      5-min Rain = 0
KHA2 120018Z 06004KT 05/M14 A3013 RMK A01 T00451143  RH  024%=      5-min Rain = 0
KHA2 120019Z 06004KT 05/M14 A3014 RMK A01 T00451144  RH  024%=      5-min Rain = 0
KHA2 120020Z 06004KT 05/M14 A3014 RMK A01 T00451144  RH  024%=      5-min Rain = 0
KHA2 120021Z 06005KT 05/M15 A3014 RMK A01 T00451145  RH  024%=      5-min Rain = 0
KHA2 120022Z 06005KT 04/M15 A3014 RMK A01 T00431146  RH  024%=      5-min Rain = 0
KHA2 120023Z 07006KT 04/M15 A3014 RMK A01 T00411145  RH  024%=      5-min Rain = 0
KHA2 120024Z 07005KT 04/M14 A3014 RMK A01 T00381139  RH  026%=      5-min Rain = 0
KHA2 120025Z 07006KT 04/M13 A3014 RMK A01 T00361129  RH  029%=      5-min Rain = 0
KHA2 120026Z 07006KT 03/M12 A3014 RMK A01 T00341123  RH  031%=      5-min Rain = 0
KHA2 120027Z 07006KT 03/M12 A3014 RMK A01 T00321124  RH  031%=      5-min Rain = 0
KHA2 120028Z 07006KT 03/M13 A3014 RMK A01 T00311126  RH  031%=      5-min Rain = 0
KHA2 120029Z 07006KT 03/M13 A3014 RMK A01 T00301128  RH  030%=      5-min Rain = 0
KHA2 120030Z 06006KT 03/M13 A3014 RMK A01 T00301130  RH  030%=      5-min Rain = 0
KHA2 120031Z 06005KT 03/M13 A3014 RMK A01 T00291131  RH  030%=      5-min Rain = 0
KHA2 120032Z 06005KT 03/M13 A3014 RMK A01 T00291131  RH  030%=      5-min Rain = 0
KHA2 120033Z 06005KT 03/M13 A3014 RMK A01 T00291133  RH  029%=      5-min Rain = 0
KHA2 120034Z 07004KT 03/M14 A3014 RMK A01 T00291136  RH  029%=      5-min Rain = 0
KHA2 120035Z 07005KT 03/M14 A3014 RMK A01 T00301139  RH  028%=      5-min Rain = 0
KHA2 120036Z 07005KT 03/M14 A3014 RMK A01 T00301135  RH  029%=      5-min Rain = 0
KHA2 120037Z 07005KT 03/M13 A3014 RMK A01 T00301125  RH  031%=      5-min Rain = 0
KHA2 120038Z 07005KT 03/M12 A3014 RMK A01 T00291124  RH  031%=      5-min Rain = 0
KHA2 120039Z 08005KT 03/M13 A3014 RMK A01 T00281126  RH  031%=      5-min Rain = 0
KHA2 120040Z 08005KT 03/M13 A3014 RMK A01 T00281127  RH  031%=      5-min Rain = 0
KHA2 120041Z 08005KT 03/M13 A3014 RMK A01 T00271126  RH  032%=      5-min Rain = 0
KHA2 120042Z 08005KT 03/M13 A3014 RMK A01 T00261125  RH  032%=      5-min Rain = 0
KHA2 120043Z 08005KT 03/M13 A3014 RMK A01 T00251125  RH  032%=      5-min Rain = 0
KHA2 120044Z 08005KT 03/M12 A3014 RMK A01 T00251124  RH  032%=      5-min Rain = 0
KHA2 120045Z 08005KT 02/M12 A3014 RMK A01 T00241123  RH  033%=      5-min Rain = 0
KHA2 120046Z 08005KT 02/M12 A3014 RMK A01 T00241120  RH  034%=      5-min Rain = 0
KHA2 120047Z 08005KT 02/M12 A3014 RMK A01 T00231120  RH  034%=      5-min Rain = 0
KHA2 120048Z 08005KT 02/M12 A3014 RMK A01 T00231120  RH  034%=      5-min Rain = 0
KHA2 120049Z 08005KT 02/M12 A3014 RMK A01 T00231118  RH  034%=      5-min Rain = 0
KHA2 120050Z 08005KT 02/M12 A3014 RMK A01 T00221120  RH  034%=      5-min Rain = 0
KHA2 120051Z 07005KT 02/M12 A3014 RMK A01 T00221123  RH  033%=      5-min Rain = 0
KHA2 120052Z 07005KT 02/M12 A3014 RMK A01 T00221122  RH  034%=      5-min Rain = 0
KHA2 120053Z 07004KT 02/M12 A3014 RMK A01 T00221122  RH  034%=      5-min Rain = 0
KHA2 120054Z 07005KT 02/M12 A3015 RMK A01 T00221122  RH  033%=      5-min Rain = 0
KHA2 120055Z 08005KT 02/M12 A3015 RMK A01 T00231124  RH  033%=      5-min Rain = 0
KHA2 120056Z 07005KT 02/M12 A3015 RMK A01 T00231124  RH  033%=      5-min Rain = 0
KHA2 120057Z 08005KT 02/M12 A3015 RMK A01 T00241120  RH  034%=      5-min Rain = 0
KHA2 120058Z 08004KT 02/M12 A3015 RMK A01 T00241120  RH  034%=      5-min Rain = 0
KHA2 120059Z 08004KT 02/M12 A3015 RMK A01 T00241119  RH  034%=      5-min Rain = 0
KHA2 120100Z 08005KT 02/M12 A3015 RMK A01 T00241118  RH  034%=      5-min Rain = 0
KHA2 120101Z 08005KT 03/M12 A3015 RMK A01 T00251118  RH  034%=      5-min Rain = 0
KHA2 120102Z 08005KT 03/M12 A3015 RMK A01 T00251118  RH  034%=      5-min Rain = 0
KHA2 120103Z 09005KT 03/M12 A3015 RMK A01 T00251118  RH  034%=      5-min Rain = 0
KHA2 120104Z 09005KT 02/M12 A3015 RMK A01 T00241122  RH  033%=      5-min Rain = 0
KHA2 120105Z 09005KT 02/M13 A3015 RMK A01 T00221126  RH  032%=      5-min Rain = 0
KHA2 120106Z 09005KT 02/M13 A3015 RMK A01 T00211128  RH  032%=      5-min Rain = 0
KHA2 120107Z 09005KT 02/M13 A3015 RMK A01 T00201127  RH  033%=      5-min Rain = 0
KHA2 120108Z 09005KT 02/M13 A3015 RMK A01 T00191125  RH  034%=      5-min Rain = 0
KHA2 120109Z 09005KT 02/M12 A3015 RMK A01 T00181123  RH  034%=      5-min Rain = 0
KHA2 120110Z 09005KT 02/M12 A3015 RMK A01 T00171122  RH  035%=      5-min Rain = 0
KHA2 120111Z 09005KT 02/M12 A3015 RMK A01 T00161124  RH  034%=      5-min Rain = 0
KHA2 120112Z 09005KT 02/M13 A3015 RMK A01 T00161125  RH  034%=      5-min Rain = 0
KHA2 120113Z 10006KT 02/M13 A3015 RMK A01 T00151126  RH  034%=      5-min Rain = 0
KHA2 120114Z 11007KT 02/M13 A3015 RMK A01 T00151128  RH  034%=      5-min Rain = 0
KHA2 120115Z 11006KT 01/M14 A3015 RMK A01 T00131141  RH  031%=      5-min Rain = 0
KHA2 120116Z 10006KT 01/M15 A3015 RMK A01 T00091151  RH  029%=      5-min Rain = 0
KHA2 120117Z 10006KT 01/M15 A3015 RMK A01 T00061154  RH  029%=      5-min Rain = 0
KHA2 120118Z 10006KT 00/M16 A3015 RMK A01 T00041155  RH  029%=      5-min Rain = 0
KHA2 120119Z 11006KT 00/M16 A3015 RMK A01 T00021157  RH  029%=      5-min Rain = 0
KHA2 120120Z 11006KT 00/16 A3015 RMK A01 T00-00-157  RH  030%=      5-min Rain = 0
KHA2 120121Z 11006KT M00/M16 A3015 RMK A01 T10011156  RH  030%=      5-min Rain = 0
KHA2 120122Z 11006KT M00/M16 A3015 RMK A01 T10011155  RH  030%=      5-min Rain = 0
KHA2 120123Z 11007KT M00/M16 A3015 RMK A01 T10011155  RH  030%=      5-min Rain = 0
KHA2 120124Z 12007KT 00/15 A3016 RMK A01 T00-00-154  RH  030%=      5-min Rain = 0
KHA2 120125Z 12006KT 00/15 A3016 RMK A01 T00000-154  RH  030%=      5-min Rain = 0
KHA2 120126Z 12006KT M00/M16 A3016 RMK A01 T10011155  RH  030%=      5-min Rain = 0
KHA2 120127Z 12006KT M00/M16 A3016 RMK A01 T10021157  RH  030%=      5-min Rain = 0
KHA2 120128Z 11006KT M00/M16 A3016 RMK A01 T10041157  RH  030%=      5-min Rain = 0
KHA2 120129Z 11007KT M01/M16 A3016 RMK A01 T10051157  RH  031%=      5-min Rain = 0
KHA2 120130Z 11007KT M01/M16 A3016 RMK A01 T10051156  RH  031%=      5-min Rain = 0
KHA2 120131Z 12007KT M00/M16 A3016 RMK A01 T10041155  RH  031%=      5-min Rain = 0
KHA2 120132Z 12007KT M00/M16 A3016 RMK A01 T10041156  RH  031%=      5-min Rain = 0
KHA2 120133Z 12007KT M00/M16 A3016 RMK A01 T10041156  RH  031%=      5-min Rain = 0
KHA2 120134Z 12007KT M00/M16 A3016 RMK A01 T10041157  RH  030%=      5-min Rain = 0
KHA2 120135Z 12006KT M00/M16 A3016 RMK A01 T10041157  RH  030%=      5-min Rain = 0
KHA2 120136Z 12006KT M00/M16 A3016 RMK A01 T10041157  RH  030%=      5-min Rain = 0
KHA2 120137Z 12007KT M00/M16 A3016 RMK A01 T10041157  RH  031%=      5-min Rain = 0
KHA2 120138Z 11007KT M01/M16 A3016 RMK A01 T10051157  RH  030%=      5-min Rain = 0
KHA2 120139Z 11007KT M01/M16 A3016 RMK A01 T10051158  RH  030%=      5-min Rain = 0
KHA2 120140Z 11007KT M01/M16 A3016 RMK A01 T10061159  RH  030%=      5-min Rain = 0
KHA2 120141Z 12006KT M01/M16 A3016 RMK A01 T10061159  RH  031%=      5-min Rain = 0
KHA2 120142Z 12007KT M01/M16 A3016 RMK A01 T10071159  RH  031%=      5-min Rain = 0
KHA2 120143Z 12007KT M01/M16 A3016 RMK A01 T10071158  RH  031%=      5-min Rain = 0
KHA2 120144Z 12007KT M01/M16 A3016 RMK A01 T10071159  RH  031%=      5-min Rain = 0
KHA2 120145Z 12007KT M01/M16 A3016 RMK A01 T10071159  RH  031%=      5-min Rain = 0
KHA2 120146Z 12007KT M01/M16 A3016 RMK A01 T10081159  RH  031%=      5-min Rain = 0
KHA2 120147Z 12007KT M01/M16 A3016 RMK A01 T10071159  RH  031%=      5-min Rain = 0
KHA2 120148Z 13006KT M01/M16 A3016 RMK A01 T10071159  RH  031%=      5-min Rain = 0
KHA2 120149Z 13005KT M01/M16 A3016 RMK A01 T10081160  RH  031%=      5-min Rain = 0
KHA2 120150Z 13006KT M01/M16 A3016 RMK A01 T10101161  RH  031%=      5-min Rain = 0
KHA2 120151Z 13006KT M01/M16 A3017 RMK A01 T10121161  RH  031%=      5-min Rain = 0
KHA2 120152Z 13007KT M01/M16 A3017 RMK A01 T10141163  RH  031%=      5-min Rain = 0
KHA2 120153Z 14006KT M02/M16 A3017 RMK A01 T10161163  RH  032%=      5-min Rain = 0
KHA2 120154Z 13006KT M02/M16 A3017 RMK A01 T10171162  RH  032%=      5-min Rain = 0
KHA2 120155Z 13006KT M02/M16 A3017 RMK A01 T10171162  RH  032%=      5-min Rain = 0
KHA2 120156Z 13005KT M02/M16 A3017 RMK A01 T10181162  RH  032%=      5-min Rain = 0
KHA2 120157Z 13005KT M02/M16 A3017 RMK A01 T10191162  RH  033%=      5-min Rain = 0
KHA2 120158Z 13006KT M02/M16 A3017 RMK A01 T10191162  RH  033%=      5-min Rain = 0
KHA2 120159Z 13005KT M02/M16 A3017 RMK A01 T10191162  RH  033%=      5-min Rain = 0
KHA2 120200Z 13005KT M02/M16 A3017 RMK A01 T10201161  RH  033%=      5-min Rain = 0
KHA2 120201Z 13005KT M02/M16 A3017 RMK A01 T10201161  RH  033%=      5-min Rain = 0
KHA2 120202Z 13005KT M02/M16 A3017 RMK A01 T10201161  RH  033%=      5-min Rain = 0
KHA2 120203Z 13005KT M02/M16 A3017 RMK A01 T10201161  RH  033%=      5-min Rain = 0
KHA2 120204Z 13005KT M02/M16 A3017 RMK A01 T10201161  RH  033%=      5-min Rain = 0
KHA2 120205Z 13005KT M02/M16 A3017 RMK A01 T10191160  RH  033%=      5-min Rain = 0
KHA2 120206Z 13005KT M02/M16 A3017 RMK A01 T10181160  RH  033%=      5-min Rain = 0
KHA2 120207Z 14005KT M02/M16 A3017 RMK A01 T10171159  RH  033%=      5-min Rain = 0
KHA2 120208Z 14006KT M02/M16 A3017 RMK A01 T10161159  RH  033%=      5-min Rain = 0
KHA2 120209Z 13006KT M02/M16 A3017 RMK A01 T10161159  RH  033%=      5-min Rain = 0
KHA2 120210Z 13006KT M02/M16 A3017 RMK A01 T10151160  RH  032%=      5-min Rain = 0
KHA2 120211Z 13006KT M02/M16 A3017 RMK A01 T10151160  RH  032%=      5-min Rain = 0
KHA2 120212Z 13006KT M01/M16 A3017 RMK A01 T10141160  RH  032%=      5-min Rain = 0
KHA2 120213Z 13007KT M01/M16 A3017 RMK A01 T10141160  RH  032%=      5-min Rain = 0
KHA2 120214Z 13006KT M01/M16 A3017 RMK A01 T10141161  RH  032%=      5-min Rain = 0
KHA2 120215Z 13006KT M01/M16 A3018 RMK A01 T10141161  RH  032%=      5-min Rain = 0
KHA2 120216Z 13006KT M01/M16 A3018 RMK A01 T10141161  RH  032%=      5-min Rain = 0
KHA2 120217Z 13006KT M01/M16 A3018 RMK A01 T10141162  RH  031%=      5-min Rain = 0
KHA2 120218Z 13006KT M01/M16 A3018 RMK A01 T10141161  RH  031%=      5-min Rain = 0
KHA2 120219Z 13006KT M01/M16 A3018 RMK A01 T10141162  RH  031%=      5-min Rain = 0
KHA2 120220Z 13006KT M01/M16 A3018 RMK A01 T10141162  RH  031%=      5-min Rain = 0
KHA2 120221Z 13005KT M02/M16 A3018 RMK A01 T10151162  RH  031%=      5-min Rain = 0
KHA2 120222Z 13006KT M02/M16 A3018 RMK A01 T10151163  RH  031%=      5-min Rain = 0
KHA2 120223Z 13006KT M02/M16 A3018 RMK A01 T10161163  RH  032%=      5-min Rain = 0
KHA2 120224Z 13006KT M02/M16 A3018 RMK A01 T10161163  RH  032%=      5-min Rain = 0
KHA2 120225Z 13006KT M02/M16 A3018 RMK A01 T10161163  RH  032%=      5-min Rain = 0
KHA2 120226Z 13006KT M02/M16 A3018 RMK A01 T10161163  RH  032%=      5-min Rain = 0
KHA2 120227Z 13006KT M02/M16 A3018 RMK A01 T10181164  RH  032%=      5-min Rain = 0
KHA2 120228Z 13006KT M02/M16 A3018 RMK A01 T10181164  RH  032%=      5-min Rain = 0
KHA2 120229Z 13006KT M02/M17 A3018 RMK A01 T10201165  RH  032%=      5-min Rain = 0
KHA2 120230Z 13006KT M02/M17 A3018 RMK A01 T10211166  RH  032%=      5-min Rain = 0
KHA2 120231Z 13006KT M02/M17 A3018 RMK A01 T10231166  RH  032%=      5-min Rain = 0
KHA2 120232Z 12006KT M02/M17 A3018 RMK A01 T10231166  RH  033%=      5-min Rain = 0
KHA2 120233Z 12006KT M02/M17 A3018 RMK A01 T10241166  RH  033%=      5-min Rain = 0
KHA2 120234Z 12006KT M02/M17 A3018 RMK A01 T10241165  RH  033%=      5-min Rain = 0
KHA2 120235Z 12006KT M03/M17 A3018 RMK A01 T10251166  RH  033%=      5-min Rain = 0
KHA2 120236Z 12007KT M03/M17 A3018 RMK A01 T10251166  RH  033%=      5-min Rain = 0
KHA2 120237Z 12007KT M02/M17 A3018 RMK A01 T10241166  RH  033%=      5-min Rain = 0
KHA2 120238Z 12007KT M03/M17 A3018 RMK A01 T10251166  RH  033%=      5-min Rain = 0
KHA2 120239Z 12007KT M03/M17 A3018 RMK A01 T10251166  RH  033%=      5-min Rain = 0
KHA2 120240Z 13006KT M03/M17 A3018 RMK A01 T10261167  RH  033%=      5-min Rain = 0
KHA2 120241Z 13006KT M03/M17 A3018 RMK A01 T10271167  RH  033%=      5-min Rain = 0
KHA2 120242Z 13006KT M03/M17 A3018 RMK A01 T10271168  RH  033%=      5-min Rain = 0
KHA2 120243Z 13007KT M03/M17 A3018 RMK A01 T10281168  RH  033%=      5-min Rain = 0
KHA2 120244Z 13007KT M03/M17 A3018 RMK A01 T10291168  RH  033%=      5-min Rain = 0
KHA2 120245Z 13007KT M03/M17 A3018 RMK A01 T10301168  RH  034%=      5-min Rain = 0
KHA2 120246Z 13007KT M03/M17 A3018 RMK A01 T10301168  RH  034%=      5-min Rain = 0
KHA2 120247Z 13007KT M03/M17 A3018 RMK A01 T10301168  RH  034%=      5-min Rain = 0
KHA2 120248Z 12007KT M03/M17 A3018 RMK A01 T10311169  RH  034%=      5-min Rain = 0
KHA2 120249Z 12007KT M03/M17 A3018 RMK A01 T10331169  RH  034%=      5-min Rain = 0
KHA2 120250Z 13007KT M03/M17 A3019 RMK A01 T10341169  RH  034%=      5-min Rain = 0
KHA2 120251Z 13007KT M04/M17 A3019 RMK A01 T10351168  RH  035%=      5-min Rain = 0
KHA2 120252Z 13007KT M04/M17 A3019 RMK A01 T10351167  RH  035%=      5-min Rain = 0
KHA2 120253Z 13007KT M04/M17 A3019 RMK A01 T10351167  RH  035%=      5-min Rain = 0
KHA2 120254Z 13007KT M04/M17 A3019 RMK A01 T10361168  RH  035%=      5-min Rain = 0
KHA2 120255Z 13007KT M04/M17 A3019 RMK A01 T10381168  RH  036%=      5-min Rain = 0
KHA2 120256Z 13007KT M04/M17 A3019 RMK A01 T10391168  RH  036%=      5-min Rain = 0
KHA2 120257Z 13007KT M04/M17 A3019 RMK A01 T10401169  RH  036%=      5-min Rain = 0
KHA2 120258Z 13007KT M04/M17 A3019 RMK A01 T10411168  RH  036%=      5-min Rain = 0
KHA2 120259Z 13007KT M04/M17 A3019 RMK A01 T10421168  RH  037%=      5-min Rain = 0
KHA2 120300Z 13007KT M04/M17 A3019 RMK A01 T10431168  RH  037%=      5-min Rain = 0
KHA2 120301Z 14007KT M04/M17 A3019 RMK A01 T10431168  RH  037%=      5-min Rain = 0
KHA2 120302Z 14007KT M04/M17 A3019 RMK A01 T10431168  RH  037%=      5-min Rain = 0
KHA2 120303Z 14007KT M04/M17 A3019 RMK A01 T10441168  RH  037%=      5-min Rain = 0
KHA2 120304Z 14007KT M05/M17 A3019 RMK A01 T10451169  RH  037%=      5-min Rain = 0
KHA2 120305Z 14007KT M05/M17 A3019 RMK A01 T10461170  RH  037%=      5-min Rain = 0
KHA2 120306Z 14007KT M05/M17 A3019 RMK A01 T10471170  RH  038%=      5-min Rain = 0
KHA2 120307Z 14007KT M05/M17 A3019 RMK A01 T10471170  RH  038%=      5-min Rain = 0
KHA2 120308Z 14006KT M05/M17 A3019 RMK A01 T10471169  RH  038%=      5-min Rain = 0
KHA2 120309Z 14007KT M05/M17 A3019 RMK A01 T10471169  RH  038%=      5-min Rain = 0
KHA2 120310Z 14006KT M05/M17 A3019 RMK A01 T10471169  RH  038%=      5-min Rain = 0
KHA2 120311Z 14006KT M05/M17 A3019 RMK A01 T10471169  RH  038%=      5-min Rain = 0
KHA2 120312Z 14006KT M05/M17 A3019 RMK A01 T10481170  RH  038%=      5-min Rain = 0
KHA2 120313Z 14007KT M05/M17 A3019 RMK A01 T10481170  RH  038%=      5-min Rain = 0
KHA2 120314Z 14007KT M05/M17 A3019 RMK A01 T10491170  RH  038%=      5-min Rain = 0
KHA2 120315Z 15007KT M05/M17 A3019 RMK A01 T10481169  RH  038%=      5-min Rain = 0
KHA2 120316Z 15007KT M05/M17 A3019 RMK A01 T10481168  RH  039%=      5-min Rain = 0
KHA2 120317Z 15007KT M05/M17 A3019 RMK A01 T10481167  RH  039%=      5-min Rain = 0
KHA2 120318Z 15007KT M05/M17 A3019 RMK A01 T10481167  RH  039%=      5-min Rain = 0
KHA2 120319Z 15007KT M05/M17 A3019 RMK A01 T10491167  RH  039%=      5-min Rain = 0
KHA2 120320Z 15007KT M05/M17 A302 RMK A01 T10501169  RH  039%=      5-min Rain = 0
KHA2 120321Z 15007KT M05/M17 A302 RMK A01 T10511169  RH  039%=      5-min Rain = 0
KHA2 120322Z 16007KT M05/M17 A302 RMK A01 T10511168  RH  039%=      5-min Rain = 0
KHA2 120323Z 16007KT M05/M17 A302 RMK A01 T10511168  RH  040%=      5-min Rain = 0
KHA2 120324Z 16007KT M05/M17 A302 RMK A01 T10511167  RH  040%=      5-min Rain = 0
KHA2 120325Z 15007KT M05/M17 A3019 RMK A01 T10501167  RH  040%=      5-min Rain = 0
KHA2 120326Z 15007KT M05/M17 A3019 RMK A01 T10511168  RH  040%=      5-min Rain = 0
KHA2 120327Z 15007KT M05/M17 A3019 RMK A01 T10521168  RH  040%=      5-min Rain = 0
KHA2 120328Z 15007KT M05/M17 A3019 RMK A01 T10541169  RH  040%=      5-min Rain = 0
KHA2 120329Z 15008KT M06/M17 A302 RMK A01 T10551170  RH  040%=      5-min Rain = 0
KHA2 120330Z 15008KT M06/M17 A302 RMK A01 T10561170  RH  040%=      5-min Rain = 0
KHA2 120331Z 15008KT M06/M17 A302 RMK A01 T10571171  RH  040%=      5-min Rain = 0
KHA2 120332Z 15007KT M06/M17 A302 RMK A01 T10591171  RH  041%=      5-min Rain = 0
KHA2 120333Z 15007KT M06/M17 A302 RMK A01 T10601171  RH  041%=      5-min Rain = 0
KHA2 120334Z 15007KT M06/M17 A302 RMK A01 T10611171  RH  042%=      5-min Rain = 0
KHA2 120335Z 15007KT M06/M17 A302 RMK A01 T10621170  RH  042%=      5-min Rain = 0
KHA2 120336Z 15007KT M06/M17 A302 RMK A01 T10621169  RH  042%=      5-min Rain = 0
KHA2 120337Z 15007KT M06/M17 A302 RMK A01 T10621169  RH  042%=      5-min Rain = 0
KHA2 120338Z 15007KT M06/M17 A302 RMK A01 T10631169  RH  043%=      5-min Rain = 0
KHA2 120339Z 15007KT M06/M17 A302 RMK A01 T10641169  RH  043%=      5-min Rain = 0
KHA2 120340Z 15007KT M06/M17 A302 RMK A01 T10641169  RH  043%=      5-min Rain = 0
KHA2 120341Z 16007KT M07/M17 A302 RMK A01 T10651168  RH  044%=      5-min Rain = 0
KHA2 120342Z 16007KT M07/M17 A302 RMK A01 T10651168  RH  044%=      5-min Rain = 0
KHA2 120343Z 16007KT M07/M17 A302 RMK A01 T10661168  RH  044%=      5-min Rain = 0
KHA2 120344Z 16006KT M07/M17 A302 RMK A01 T10661167  RH  044%=      5-min Rain = 0
KHA2 120345Z 17006KT M07/M17 A302 RMK A01 T10661167  RH  044%=      5-min Rain = 0
KHA2 120346Z 16006KT M07/M17 A302 RMK A01 T10651167  RH  045%=      5-min Rain = 0
KHA2 120347Z 17006KT M07/M17 A302 RMK A01 T10661167  RH  044%=      5-min Rain = 0
KHA2 120348Z 17006KT M07/M17 A302 RMK A01 T10671167  RH  045%=      5-min Rain = 0
KHA2 120349Z 17006KT M07/M17 A302 RMK A01 T10671167  RH  045%=      5-min Rain = 0
KHA2 120350Z 17006KT M07/M17 A302 RMK A01 T10671167  RH  045%=      5-min Rain = 0
KHA2 120351Z 17006KT M07/M17 A302 RMK A01 T10671167  RH  045%=      5-min Rain = 0
KHA2 120352Z 17006KT M07/M17 A302 RMK A01 T10681167  RH  045%=      5-min Rain = 0
KHA2 120353Z 17005KT M07/M17 A302 RMK A01 T10671166  RH  045%=      5-min Rain = 0
KHA2 120354Z 17005KT M07/M17 A302 RMK A01 T10671166  RH  045%=      5-min Rain = 0
KHA2 120355Z 17006KT M07/M17 A302 RMK A01 T10681167  RH  045%=      5-min Rain = 0
KHA2 120356Z 18005KT M07/M17 A302 RMK A01 T10691168  RH  045%=      5-min Rain = 0
KHA2 120357Z 18005KT M07/M17 A302 RMK A01 T10701169  RH  045%=      5-min Rain = 0
KHA2 120358Z 18005KT M07/M17 A302 RMK A01 T10711169  RH  045%=      5-min Rain = 0
KHA2 120359Z 18004KT M07/M17 A302 RMK A01 T10711169  RH  046%=      5-min Rain = 0
KHA2 120400Z 17005KT M07/M17 A302 RMK A01 T10721168  RH  046%=      5-min Rain = 0
KHA2 120401Z 17005KT M07/M17 A302 RMK A01 T10711168  RH  046%=      5-min Rain = 0
KHA2 120402Z 17005KT M07/M17 A302 RMK A01 T10711167  RH  046%=      5-min Rain = 0
KHA2 120403Z 17005KT M07/M17 A302 RMK A01 T10701167  RH  046%=      5-min Rain = 0
KHA2 120404Z 17005KT M07/M17 A302 RMK A01 T10701167  RH  046%=      5-min Rain = 0
KHA2 120405Z 17005KT M07/M17 A302 RMK A01 T10691168  RH  045%=      5-min Rain = 0
KHA2 120406Z 17005KT M07/M17 A302 RMK A01 T10691168  RH  045%=      5-min Rain = 0
KHA2 120407Z 17005KT M07/M17 A302 RMK A01 T10691169  RH  045%=      5-min Rain = 0
KHA2 120408Z 17005KT M07/M17 A302 RMK A01 T10691169  RH  045%=      5-min Rain = 0
KHA2 120409Z 18005KT M07/M17 A302 RMK A01 T10681168  RH  045%=      5-min Rain = 0
KHA2 120410Z 18006KT M07/M17 A302 RMK A01 T10681168  RH  045%=      5-min Rain = 0
KHA2 120411Z 18005KT M07/M17 A302 RMK A01 T10681167  RH  045%=      5-min Rain = 0
KHA2 120412Z 18006KT M07/M17 A302 RMK A01 T10691167  RH  046%=      5-min Rain = 0
KHA2 120413Z 18006KT M07/M17 A302 RMK A01 T10691166  RH  046%=      5-min Rain = 0
KHA2 120414Z 17006KT M07/M17 A302 RMK A01 T10691166  RH  046%=      5-min Rain = 0
KHA2 120415Z 17006KT M07/M17 A302 RMK A01 T10691166  RH  046%=      5-min Rain = 0
KHA2 120416Z 18006KT M07/M17 A302 RMK A01 T10691166  RH  046%=      5-min Rain = 0
KHA2 120417Z 18006KT M07/M17 A302 RMK A01 T10681166  RH  046%=      5-min Rain = 0
KHA2 120418Z 18006KT M07/M17 A302 RMK A01 T10681166  RH  046%=      5-min Rain = 0
KHA2 120419Z 18005KT M07/M17 A302 RMK A01 T10681166  RH  046%=      5-min Rain = 0
KHA2 120420Z 18005KT M07/M17 A302 RMK A01 T10691167  RH  046%=      5-min Rain = 0
KHA2 120421Z 18006KT M07/M17 A302 RMK A01 T10691167  RH  046%=      5-min Rain = 0
KHA2 120422Z 18006KT M07/M17 A3019 RMK A01 T10691167  RH  046%=      5-min Rain = 0
KHA2 120423Z 18007KT M07/M17 A3019 RMK A01 T10701167  RH  046%=      5-min Rain = 0
KHA2 120424Z 18007KT M07/M17 A3019 RMK A01 T10701167  RH  046%=      5-min Rain = 0
KHA2 120425Z 18007KT M07/M17 A302 RMK A01 T10701167  RH  046%=      5-min Rain = 0
KHA2 120426Z 18007KT M07/M17 A302 RMK A01 T10701167  RH  046%=      5-min Rain = 0
KHA2 120427Z 18007KT M07/M17 A302 RMK A01 T10701167  RH  046%=      5-min Rain = 0
KHA2 120428Z 18007KT M07/M17 A302 RMK A01 T10701167  RH  046%=      5-min Rain = 0
KHA2 120429Z 18006KT M07/M17 A302 RMK A01 T10711166  RH  046%=      5-min Rain = 0
KHA2 120430Z 18006KT M07/M17 A302 RMK A01 T10701165  RH  047%=      5-min Rain = 0
KHA2 120431Z 18006KT M07/M16 A302 RMK A01 T10691164  RH  047%=      5-min Rain = 0
KHA2 120432Z 18005KT M07/M17 A302 RMK A01 T10691165  RH  046%=      5-min Rain = 0
KHA2 120433Z 18005KT M07/M17 A302 RMK A01 T10691165  RH  046%=      5-min Rain = 0
KHA2 120434Z 18005KT M07/M17 A302 RMK A01 T10711167  RH  046%=      5-min Rain = 0
KHA2 120435Z 18006KT M07/M17 A3019 RMK A01 T10711167  RH  046%=      5-min Rain = 0
KHA2 120436Z 18006KT M07/M17 A3019 RMK A01 T10721168  RH  046%=      5-min Rain = 0
KHA2 120437Z 18006KT M07/M17 A3019 RMK A01 T10731168  RH  047%=      5-min Rain = 0
KHA2 120438Z 18006KT M07/M17 A3019 RMK A01 T10731168  RH  047%=      5-min Rain = 0
KHA2 120439Z 18006KT M07/M17 A3019 RMK A01 T10741167  RH  047%=      5-min Rain = 0
KHA2 120440Z 18006KT M07/M17 A3019 RMK A01 T10741167  RH  047%=      5-min Rain = 0
KHA2 120441Z 18006KT M07/M17 A3019 RMK A01 T10741166  RH  048%=      5-min Rain = 0
KHA2 120442Z 18006KT M07/M17 A3019 RMK A01 T10731165  RH  048%=      5-min Rain = 0
KHA2 120443Z 17006KT M07/M16 A3019 RMK A01 T10721164  RH  048%=      5-min Rain = 0
KHA2 120444Z 17006KT M07/M17 A3019 RMK A01 T10721165  RH  047%=      5-min Rain = 0
KHA2 120445Z 17006KT M07/M17 A3019 RMK A01 T10731166  RH  047%=      5-min Rain = 0
KHA2 120446Z 18006KT M07/M17 A3019 RMK A01 T10731166  RH  048%=      5-min Rain = 0
KHA2 120447Z 18006KT M07/M17 A3019 RMK A01 T10731165  RH  048%=      5-min Rain = 0
KHA2 120448Z 18006KT M07/M16 A3019 RMK A01 T10721164  RH  048%=      5-min Rain = 0
KHA2 120449Z 18006KT M07/M16 A3019 RMK A01 T10721164  RH  048%=      5-min Rain = 0
KHA2 120450Z 18006KT M07/M16 A3019 RMK A01 T10711164  RH  048%=      5-min Rain = 0
KHA2 120451Z 18006KT M07/M16 A3019 RMK A01 T10701163  RH  048%=      5-min Rain = 0
KHA2 120452Z 18006KT M07/M16 A3019 RMK A01 T10691164  RH  047%=      5-min Rain = 0
KHA2 120453Z 18006KT M07/M17 A3019 RMK A01 T10711166  RH  047%=      5-min Rain = 0
KHA2 120454Z 18005KT M07/M17 A3019 RMK A01 T10731167  RH  047%=      5-min Rain = 0
KHA2 120455Z 19005KT M07/M17 A3019 RMK A01 T10731167  RH  047%=      5-min Rain = 0
KHA2 120456Z 19005KT M07/M17 A3019 RMK A01 T10731165  RH  048%=      5-min Rain = 0
KHA2 120457Z 19006KT M07/M16 A302 RMK A01 T10721164  RH  048%=      5-min Rain = 0
KHA2 120458Z 19006KT M07/M16 A302 RMK A01 T10721164  RH  048%=      5-min Rain = 0
KHA2 120459Z 19006KT M07/M17 A302 RMK A01 T10711166  RH  047%=      5-min Rain = 0
KHA2 120500Z 19006KT M07/M17 A302 RMK A01 T10721167  RH  047%=      5-min Rain = 0
KHA2 120501Z 19005KT M07/M17 A302 RMK A01 T10721167  RH  047%=      5-min Rain = 0
KHA2 120502Z 19005KT M07/M17 A302 RMK A01 T10721167  RH  047%=      5-min Rain = 0
KHA2 120503Z 18004KT M07/M17 A302 RMK A01 T10731167  RH  047%=      5-min Rain = 0
KHA2 120504Z 18004KT M07/M17 A302 RMK A01 T10731167  RH  047%=      5-min Rain = 0
KHA2 120505Z 18005KT M07/M17 A302 RMK A01 T10731166  RH  047%=      5-min Rain = 0
KHA2 120506Z 19006KT M07/M17 A302 RMK A01 T10721165  RH  047%=      5-min Rain = 0
KHA2 120507Z 19007KT M07/M17 A302 RMK A01 T10711165  RH  047%=      5-min Rain = 0
KHA2 120508Z 19007KT M07/M17 A302 RMK A01 T10711166  RH  047%=      5-min Rain = 0
KHA2 120509Z 19006KT M07/M17 A302 RMK A01 T10721168  RH  046%=      5-min Rain = 0
KHA2 120510Z 19006KT M07/M17 A302 RMK A01 T10721168  RH  046%=      5-min Rain = 0
KHA2 120511Z 19005KT M07/M17 A302 RMK A01 T10731169  RH  046%=      5-min Rain = 0
KHA2 120512Z 19005KT M07/M17 A302 RMK A01 T10741170  RH  046%=      5-min Rain = 0
KHA2 120513Z 19005KT M08/M17 A302 RMK A01 T10751171  RH  046%=      5-min Rain = 0
KHA2 120514Z 18005KT M08/M17 A302 RMK A01 T10761171  RH  046%=      5-min Rain = 0
KHA2 120515Z 19005KT M08/M17 A302 RMK A01 T10771171  RH  047%=      5-min Rain = 0
KHA2 120516Z 19005KT M08/M17 A302 RMK A01 T10761170  RH  047%=      5-min Rain = 0
KHA2 120517Z 20005KT M08/M17 A302 RMK A01 T10761169  RH  047%=      5-min Rain = 0
KHA2 120518Z 20006KT M07/M17 A302 RMK A01 T10731166  RH  047%=      5-min Rain = 0
KHA2 120519Z 20007KT M07/M17 A302 RMK A01 T10711165  RH  047%=      5-min Rain = 0
KHA2 120520Z 20007KT M07/M17 A302 RMK A01 T10701165  RH  046%=      5-min Rain = 0
KHA2 120521Z 20007KT M07/M17 A302 RMK A01 T10691166  RH  046%=      5-min Rain = 0
KHA2 120522Z 20007KT M07/M17 A302 RMK A01 T10701169  RH  045%=      5-min Rain = 0
KHA2 120523Z 20007KT M07/M17 A302 RMK A01 T10721171  RH  045%=      5-min Rain = 0
KHA2 120524Z 20007KT M07/M17 A302 RMK A01 T10721170  RH  045%=      5-min Rain = 0
KHA2 120525Z 20007KT M07/M17 A302 RMK A01 T10721169  RH  046%=      5-min Rain = 0
KHA2 120526Z 20007KT M07/M17 A302 RMK A01 T10721169  RH  046%=      5-min Rain = 0
KHA2 120527Z 20007KT M07/M17 A3021 RMK A01 T10721169  RH  046%=      5-min Rain = 0
KHA2 120528Z 19007KT M07/M17 A3021 RMK A01 T10731169  RH  046%=      5-min Rain = 0
KHA2 120529Z 19006KT M07/M17 A3021 RMK A01 T10731167  RH  047%=      5-min Rain = 0
KHA2 120530Z 19005KT M07/M17 A3021 RMK A01 T10731166  RH  047%=      5-min Rain = 0
KHA2 120531Z 19005KT M07/M17 A3021 RMK A01 T10731165  RH  048%=      5-min Rain = 0
KHA2 120532Z 19005KT M07/M16 A3021 RMK A01 T10731164  RH  048%=      5-min Rain = 0
KHA2 120533Z 19006KT M07/M16 A3021 RMK A01 T10731164  RH  048%=      5-min Rain = 0
KHA2 120534Z 19006KT M07/M17 A3021 RMK A01 T10731165  RH  048%=      5-min Rain = 0
KHA2 120535Z 19006KT M07/M17 A3021 RMK A01 T10741165  RH  048%=      5-min Rain = 0
KHA2 120536Z 20005KT M07/M17 A3021 RMK A01 T10741165  RH  048%=      5-min Rain = 0
KHA2 120537Z 20005KT M07/M17 A3021 RMK A01 T10741165  RH  048%=      5-min Rain = 0
KHA2 120538Z 20005KT M07/M17 A3021 RMK A01 T10741165  RH  048%=      5-min Rain = 0
KHA2 120539Z 20005KT M07/M17 A3021 RMK A01 T10741165  RH  048%=      5-min Rain = 0
KHA2 120540Z 20006KT M08/M17 A3021 RMK A01 T10751166  RH  048%=      5-min Rain = 0
KHA2 120541Z 20006KT M08/M17 A3021 RMK A01 T10751166  RH  048%=      5-min Rain = 0
KHA2 120542Z 20006KT M08/M17 A3021 RMK A01 T10751167  RH  048%=      5-min Rain = 0
KHA2 120543Z 20006KT M08/M17 A3021 RMK A01 T10751167  RH  048%=      5-min Rain = 0
KHA2 120544Z 20006KT M07/M17 A3021 RMK A01 T10741166  RH  048%=      5-min Rain = 0
KHA2 120545Z 20006KT M07/M17 A3021 RMK A01 T10741167  RH  047%=      5-min Rain = 0
KHA2 120546Z 20006KT M07/M17 A3021 RMK A01 T10741168  RH  047%=      5-min Rain = 0
KHA2 120547Z 20006KT M08/M17 A3021 RMK A01 T10751169  RH  047%=      5-min Rain = 0
KHA2 120548Z 20006KT M08/M17 A3021 RMK A01 T10761170  RH  047%=      5-min Rain = 0
KHA2 120549Z 19006KT M08/M17 A3021 RMK A01 T10781170  RH  047%=      5-min Rain = 0
KHA2 120550Z 19005KT M08/M17 A3022 RMK A01 T10791169  RH  048%=      5-min Rain = 0
KHA2 120551Z 19005KT M08/M17 A3022 RMK A01 T10781168  RH  049%=      5-min Rain = 0
KHA2 120552Z 19005KT M08/M17 A3022 RMK A01 T10781167  RH  049%=      5-min Rain = 0
KHA2 120553Z 19006KT M08/M17 A3022 RMK A01 T10781166  RH  049%=      5-min Rain = 0
KHA2 120554Z 19006KT M08/M17 A3022 RMK A01 T10781166  RH  049%=      5-min Rain = 0
KHA2 120555Z 19006KT M08/M17 A3022 RMK A01 T10781166  RH  049%=      5-min Rain = 0
KHA2 120556Z 19005KT M08/M17 A3021 RMK A01 T10771165  RH  049%=      5-min Rain = 0
KHA2 120557Z 19005KT M08/M17 A3021 RMK A01 T10771165  RH  049%=      5-min Rain = 0
KHA2 120558Z 19005KT M08/M17 A3021 RMK A01 T10771165  RH  049%=      5-min Rain = 0
KHA2 120559Z 20005KT M08/M17 A3021 RMK A01 T10771165  RH  049%=      5-min Rain = 0

Page generated in 0.1461 seconds.